<?xml version="1.0" encoding="UTF-8" standalone="no" ?>
<gpx xmlns="http://www.topografix.com/GPX/1/1" xmlns:xsi="http://www.w3.org/2001/XMLSchema-instance" xsi:schemaLocation="http://www.topografix.com/GPX/1/1 http://www.topografix.com/GPX/1/1/gpx.xsd" version="1.1" creator="VisuGPX - https://www.visugpx.com">
  <metadata>
    <name>2020-08-19 10:38:44</name>
    <desc><![CDATA[Petit tour à VTT ]]></desc>
  </metadata>
  <trk>
    <name><![CDATA[2020-08-19 10:38:44]]></name>
    <trkseg>
      <trkpt lat="47.55423" lon="4.30895">
        <ele>253.93</ele>
        <time>2020-08-12T08:20:37Z</time>
      </trkpt>
      <trkpt lat="47.55423" lon="4.30895">
        <ele>253.93</ele>
        <time>2020-08-12T08:20:38Z</time>
      </trkpt>
      <trkpt lat="47.55424" lon="4.30975">
        <ele>247.68</ele>
        <time>2020-08-13T09:52:26Z</time>
      </trkpt>
      <trkpt lat="47.55421" lon="4.3096">
        <ele>248.16</ele>
        <time>2020-08-13T09:52:54Z</time>
      </trkpt>
      <trkpt lat="47.5542" lon="4.30949">
        <ele>250.08</ele>
        <time>2020-08-13T09:53:10Z</time>
      </trkpt>
      <trkpt lat="47.55425" lon="4.30893">
        <ele>250.08</ele>
        <time>2020-08-19T06:03:55Z</time>
      </trkpt>
      <trkpt lat="47.55429" lon="4.30896">
        <ele>251.52</ele>
        <time>2020-08-19T06:04:16Z</time>
      </trkpt>
      <trkpt lat="47.55429" lon="4.30895">
        <ele>252.48</ele>
        <time>2020-08-19T06:04:20Z</time>
      </trkpt>
      <trkpt lat="47.55433" lon="4.30895">
        <ele>252.48</ele>
        <time>2020-08-19T06:04:31Z</time>
      </trkpt>
      <trkpt lat="47.55439" lon="4.30903">
        <ele>252.96</ele>
        <time>2020-08-19T06:04:47Z</time>
      </trkpt>
      <trkpt lat="47.55443" lon="4.30917">
        <ele>255.85</ele>
        <time>2020-08-19T06:05:04Z</time>
      </trkpt>
      <trkpt lat="47.55444" lon="4.30918">
        <ele>256.33</ele>
        <time>2020-08-19T06:05:19Z</time>
      </trkpt>
      <trkpt lat="47.55445" lon="4.30909">
        <ele>258.73</ele>
        <time>2020-08-19T06:05:34Z</time>
      </trkpt>
      <trkpt lat="47.55447" lon="4.30906">
        <ele>259.69</ele>
        <time>2020-08-19T06:05:52Z</time>
      </trkpt>
      <trkpt lat="47.55452" lon="4.30913">
        <ele>259.21</ele>
        <time>2020-08-19T06:06:15Z</time>
      </trkpt>
      <trkpt lat="47.55448" lon="4.30919">
        <ele>255.85</ele>
        <time>2020-08-19T06:06:38Z</time>
      </trkpt>
      <trkpt lat="47.55448" lon="4.30912">
        <ele>252.48</ele>
        <time>2020-08-19T06:06:48Z</time>
      </trkpt>
      <trkpt lat="47.55445" lon="4.3091">
        <ele>253.44</ele>
        <time>2020-08-19T06:07:00Z</time>
      </trkpt>
      <trkpt lat="47.55441" lon="4.30906">
        <ele>255.85</ele>
        <time>2020-08-19T06:07:05Z</time>
      </trkpt>
      <trkpt lat="47.55435" lon="4.30893">
        <ele>262.58</ele>
        <time>2020-08-19T06:07:21Z</time>
      </trkpt>
      <trkpt lat="47.55436" lon="4.30892">
        <ele>269.79</ele>
        <time>2020-08-19T06:07:34Z</time>
      </trkpt>
      <trkpt lat="47.55439" lon="4.30893">
        <ele>273.15</ele>
        <time>2020-08-19T06:07:40Z</time>
      </trkpt>
      <trkpt lat="47.55433" lon="4.30894">
        <ele>266.9</ele>
        <time>2020-08-19T06:07:48Z</time>
      </trkpt>
      <trkpt lat="47.55431" lon="4.30851">
        <ele>263.06</ele>
        <time>2020-08-19T06:08:02Z</time>
      </trkpt>
      <trkpt lat="47.55435" lon="4.3079">
        <ele>256.33</ele>
        <time>2020-08-19T06:08:17Z</time>
      </trkpt>
      <trkpt lat="47.55461" lon="4.3076">
        <ele>254.89</ele>
        <time>2020-08-19T06:08:31Z</time>
      </trkpt>
      <trkpt lat="47.55482" lon="4.30726">
        <ele>255.37</ele>
        <time>2020-08-19T06:08:50Z</time>
      </trkpt>
      <trkpt lat="47.55506" lon="4.30706">
        <ele>256.81</ele>
        <time>2020-08-19T06:09:09Z</time>
      </trkpt>
      <trkpt lat="47.55529" lon="4.3069">
        <ele>256.81</ele>
        <time>2020-08-19T06:09:30Z</time>
      </trkpt>
      <trkpt lat="47.55547" lon="4.3068">
        <ele>258.25</ele>
        <time>2020-08-19T06:09:46Z</time>
      </trkpt>
      <trkpt lat="47.55564" lon="4.30666">
        <ele>260.17</ele>
        <time>2020-08-19T06:10:04Z</time>
      </trkpt>
      <trkpt lat="47.55579" lon="4.30654">
        <ele>261.62</ele>
        <time>2020-08-19T06:10:20Z</time>
      </trkpt>
      <trkpt lat="47.55593" lon="4.30642">
        <ele>263.06</ele>
        <time>2020-08-19T06:10:35Z</time>
      </trkpt>
      <trkpt lat="47.55609" lon="4.3063">
        <ele>265.46</ele>
        <time>2020-08-19T06:10:52Z</time>
      </trkpt>
      <trkpt lat="47.55624" lon="4.30619">
        <ele>269.31</ele>
        <time>2020-08-19T06:11:09Z</time>
      </trkpt>
      <trkpt lat="47.55634" lon="4.30611">
        <ele>271.71</ele>
        <time>2020-08-19T06:11:20Z</time>
      </trkpt>
      <trkpt lat="47.55656" lon="4.30606">
        <ele>274.59</ele>
        <time>2020-08-19T06:11:41Z</time>
      </trkpt>
      <trkpt lat="47.55674" lon="4.30599">
        <ele>277.96</ele>
        <time>2020-08-19T06:12:00Z</time>
      </trkpt>
      <trkpt lat="47.55692" lon="4.30595">
        <ele>279.4</ele>
        <time>2020-08-19T06:12:17Z</time>
      </trkpt>
      <trkpt lat="47.55707" lon="4.30591">
        <ele>282.28</ele>
        <time>2020-08-19T06:12:33Z</time>
      </trkpt>
      <trkpt lat="47.55722" lon="4.30585">
        <ele>285.17</ele>
        <time>2020-08-19T06:12:48Z</time>
      </trkpt>
      <trkpt lat="47.55737" lon="4.30576">
        <ele>288.05</ele>
        <time>2020-08-19T06:13:05Z</time>
      </trkpt>
      <trkpt lat="47.55749" lon="4.30566">
        <ele>290.46</ele>
        <time>2020-08-19T06:13:20Z</time>
      </trkpt>
      <trkpt lat="47.55763" lon="4.30554">
        <ele>293.34</ele>
        <time>2020-08-19T06:13:37Z</time>
      </trkpt>
      <trkpt lat="47.55765" lon="4.30552">
        <ele>294.3</ele>
        <time>2020-08-19T06:13:40Z</time>
      </trkpt>
      <trkpt lat="47.55771" lon="4.30547">
        <ele>295.26</ele>
        <time>2020-08-19T06:13:47Z</time>
      </trkpt>
      <trkpt lat="47.55783" lon="4.30536">
        <ele>297.67</ele>
        <time>2020-08-19T06:14:03Z</time>
      </trkpt>
      <trkpt lat="47.55796" lon="4.30526">
        <ele>301.51</ele>
        <time>2020-08-19T06:14:18Z</time>
      </trkpt>
      <trkpt lat="47.55807" lon="4.30515">
        <ele>303.91</ele>
        <time>2020-08-19T06:14:33Z</time>
      </trkpt>
      <trkpt lat="47.55819" lon="4.30506">
        <ele>307.76</ele>
        <time>2020-08-19T06:14:49Z</time>
      </trkpt>
      <trkpt lat="47.55832" lon="4.30494">
        <ele>309.2</ele>
        <time>2020-08-19T06:15:05Z</time>
      </trkpt>
      <trkpt lat="47.55845" lon="4.30487">
        <ele>314.01</ele>
        <time>2020-08-19T06:15:21Z</time>
      </trkpt>
      <trkpt lat="47.55859" lon="4.30477">
        <ele>318.81</ele>
        <time>2020-08-19T06:15:38Z</time>
      </trkpt>
      <trkpt lat="47.55874" lon="4.3047">
        <ele>321.7</ele>
        <time>2020-08-19T06:15:55Z</time>
      </trkpt>
      <trkpt lat="47.55885" lon="4.30461">
        <ele>323.62</ele>
        <time>2020-08-19T06:16:10Z</time>
      </trkpt>
      <trkpt lat="47.55898" lon="4.3045">
        <ele>326.02</ele>
        <time>2020-08-19T06:16:26Z</time>
      </trkpt>
      <trkpt lat="47.55912" lon="4.30441">
        <ele>328.91</ele>
        <time>2020-08-19T06:16:41Z</time>
      </trkpt>
      <trkpt lat="47.55928" lon="4.30434">
        <ele>331.31</ele>
        <time>2020-08-19T06:16:58Z</time>
      </trkpt>
      <trkpt lat="47.55947" lon="4.3043">
        <ele>332.27</ele>
        <time>2020-08-19T06:17:16Z</time>
      </trkpt>
      <trkpt lat="47.55949" lon="4.30429">
        <ele>332.75</ele>
        <time>2020-08-19T06:17:18Z</time>
      </trkpt>
      <trkpt lat="47.55963" lon="4.30429">
        <ele>335.64</ele>
        <time>2020-08-19T06:17:32Z</time>
      </trkpt>
      <trkpt lat="47.55969" lon="4.30429">
        <ele>336.6</ele>
        <time>2020-08-19T06:17:38Z</time>
      </trkpt>
      <trkpt lat="47.55981" lon="4.30438">
        <ele>339.48</ele>
        <time>2020-08-19T06:17:53Z</time>
      </trkpt>
      <trkpt lat="47.55986" lon="4.30445">
        <ele>341.41</ele>
        <time>2020-08-19T06:18:00Z</time>
      </trkpt>
      <trkpt lat="47.55992" lon="4.30453">
        <ele>343.81</ele>
        <time>2020-08-19T06:18:08Z</time>
      </trkpt>
      <trkpt lat="47.5601" lon="4.30473">
        <ele>349.1</ele>
        <time>2020-08-19T06:18:27Z</time>
      </trkpt>
      <trkpt lat="47.56023" lon="4.30498">
        <ele>355.83</ele>
        <time>2020-08-19T06:18:43Z</time>
      </trkpt>
      <trkpt lat="47.56037" lon="4.30525">
        <ele>364</ele>
        <time>2020-08-19T06:19:00Z</time>
      </trkpt>
      <trkpt lat="47.56056" lon="4.30555">
        <ele>366.4</ele>
        <time>2020-08-19T06:19:18Z</time>
      </trkpt>
      <trkpt lat="47.56071" lon="4.30579">
        <ele>368.8</ele>
        <time>2020-08-19T06:19:33Z</time>
      </trkpt>
      <trkpt lat="47.56072" lon="4.30581">
        <ele>369.28</ele>
        <time>2020-08-19T06:19:34Z</time>
      </trkpt>
      <trkpt lat="47.56073" lon="4.30583">
        <ele>369.28</ele>
        <time>2020-08-19T06:19:35Z</time>
      </trkpt>
      <trkpt lat="47.56074" lon="4.30585">
        <ele>369.76</ele>
        <time>2020-08-19T06:19:36Z</time>
      </trkpt>
      <trkpt lat="47.56075" lon="4.30587">
        <ele>369.76</ele>
        <time>2020-08-19T06:19:37Z</time>
      </trkpt>
      <trkpt lat="47.56076" lon="4.30588">
        <ele>370.24</ele>
        <time>2020-08-19T06:19:38Z</time>
      </trkpt>
      <trkpt lat="47.56091" lon="4.30619">
        <ele>376.97</ele>
        <time>2020-08-19T06:19:55Z</time>
      </trkpt>
      <trkpt lat="47.56102" lon="4.30642">
        <ele>382.74</ele>
        <time>2020-08-19T06:20:07Z</time>
      </trkpt>
      <trkpt lat="47.56115" lon="4.30674">
        <ele>391.87</ele>
        <time>2020-08-19T06:20:23Z</time>
      </trkpt>
      <trkpt lat="47.56132" lon="4.30709">
        <ele>399.08</ele>
        <time>2020-08-19T06:20:40Z</time>
      </trkpt>
      <trkpt lat="47.56151" lon="4.30756">
        <ele>398.12</ele>
        <time>2020-08-19T06:20:55Z</time>
      </trkpt>
      <trkpt lat="47.56177" lon="4.30809">
        <ele>389.47</ele>
        <time>2020-08-19T06:21:12Z</time>
      </trkpt>
      <trkpt lat="47.56211" lon="4.30848">
        <ele>384.66</ele>
        <time>2020-08-19T06:21:28Z</time>
      </trkpt>
      <trkpt lat="47.56252" lon="4.30906">
        <ele>380.34</ele>
        <time>2020-08-19T06:21:49Z</time>
      </trkpt>
      <trkpt lat="47.56295" lon="4.30959">
        <ele>378.42</ele>
        <time>2020-08-19T06:22:10Z</time>
      </trkpt>
      <trkpt lat="47.56346" lon="4.31012">
        <ele>370.73</ele>
        <time>2020-08-19T06:22:26Z</time>
      </trkpt>
      <trkpt lat="47.56413" lon="4.31106">
        <ele>364.48</ele>
        <time>2020-08-19T06:22:39Z</time>
      </trkpt>
      <trkpt lat="47.56492" lon="4.31201">
        <ele>361.59</ele>
        <time>2020-08-19T06:22:54Z</time>
      </trkpt>
      <trkpt lat="47.56554" lon="4.31271">
        <ele>361.59</ele>
        <time>2020-08-19T06:23:09Z</time>
      </trkpt>
      <trkpt lat="47.56562" lon="4.31278">
        <ele>361.59</ele>
        <time>2020-08-19T06:23:11Z</time>
      </trkpt>
      <trkpt lat="47.56566" lon="4.31282">
        <ele>361.59</ele>
        <time>2020-08-19T06:23:12Z</time>
      </trkpt>
      <trkpt lat="47.56647" lon="4.31359">
        <ele>361.59</ele>
        <time>2020-08-19T06:23:36Z</time>
      </trkpt>
      <trkpt lat="47.56706" lon="4.31393">
        <ele>360.63</ele>
        <time>2020-08-19T06:23:51Z</time>
      </trkpt>
      <trkpt lat="47.56714" lon="4.31396">
        <ele>360.63</ele>
        <time>2020-08-19T06:23:53Z</time>
      </trkpt>
      <trkpt lat="47.56796" lon="4.31427">
        <ele>354.38</ele>
        <time>2020-08-19T06:24:09Z</time>
      </trkpt>
      <trkpt lat="47.56887" lon="4.31473">
        <ele>346.69</ele>
        <time>2020-08-19T06:24:21Z</time>
      </trkpt>
      <trkpt lat="47.57005" lon="4.31534">
        <ele>339.48</ele>
        <time>2020-08-19T06:24:34Z</time>
      </trkpt>
      <trkpt lat="47.5705" lon="4.31561">
        <ele>338.52</ele>
        <time>2020-08-19T06:24:40Z</time>
      </trkpt>
      <trkpt lat="47.57056" lon="4.31566">
        <ele>338.04</ele>
        <time>2020-08-19T06:24:41Z</time>
      </trkpt>
      <trkpt lat="47.57156" lon="4.31627">
        <ele>337.08</ele>
        <time>2020-08-19T06:24:58Z</time>
      </trkpt>
      <trkpt lat="47.57214" lon="4.31677">
        <ele>339.48</ele>
        <time>2020-08-19T06:25:13Z</time>
      </trkpt>
      <trkpt lat="47.57253" lon="4.31719">
        <ele>343.33</ele>
        <time>2020-08-19T06:25:25Z</time>
      </trkpt>
      <trkpt lat="47.57297" lon="4.31757">
        <ele>344.29</ele>
        <time>2020-08-19T06:25:37Z</time>
      </trkpt>
      <trkpt lat="47.57368" lon="4.31801">
        <ele>345.25</ele>
        <time>2020-08-19T06:25:55Z</time>
      </trkpt>
      <trkpt lat="47.57408" lon="4.31815">
        <ele>344.77</ele>
        <time>2020-08-19T06:26:06Z</time>
      </trkpt>
      <trkpt lat="47.57417" lon="4.31817">
        <ele>344.29</ele>
        <time>2020-08-19T06:26:08Z</time>
      </trkpt>
      <trkpt lat="47.57422" lon="4.31819">
        <ele>344.29</ele>
        <time>2020-08-19T06:26:09Z</time>
      </trkpt>
      <trkpt lat="47.57511" lon="4.31869">
        <ele>342.85</ele>
        <time>2020-08-19T06:26:30Z</time>
      </trkpt>
      <trkpt lat="47.57562" lon="4.31922">
        <ele>344.77</ele>
        <time>2020-08-19T06:26:47Z</time>
      </trkpt>
      <trkpt lat="47.5762" lon="4.3199">
        <ele>346.69</ele>
        <time>2020-08-19T06:27:07Z</time>
      </trkpt>
      <trkpt lat="47.57686" lon="4.3205">
        <ele>346.69</ele>
        <time>2020-08-19T06:27:28Z</time>
      </trkpt>
      <trkpt lat="47.57748" lon="4.32113">
        <ele>347.17</ele>
        <time>2020-08-19T06:27:48Z</time>
      </trkpt>
      <trkpt lat="47.5777" lon="4.32139">
        <ele>347.65</ele>
        <time>2020-08-19T06:27:56Z</time>
      </trkpt>
      <trkpt lat="47.57772" lon="4.32145">
        <ele>347.17</ele>
        <time>2020-08-19T06:27:57Z</time>
      </trkpt>
      <trkpt lat="47.57774" lon="4.32152">
        <ele>346.69</ele>
        <time>2020-08-19T06:27:58Z</time>
      </trkpt>
      <trkpt lat="47.57775" lon="4.32159">
        <ele>346.21</ele>
        <time>2020-08-19T06:27:59Z</time>
      </trkpt>
      <trkpt lat="47.57778" lon="4.32166">
        <ele>346.21</ele>
        <time>2020-08-19T06:28:00Z</time>
      </trkpt>
      <trkpt lat="47.57781" lon="4.32172">
        <ele>345.73</ele>
        <time>2020-08-19T06:28:01Z</time>
      </trkpt>
      <trkpt lat="47.57785" lon="4.32178">
        <ele>345.25</ele>
        <time>2020-08-19T06:28:02Z</time>
      </trkpt>
      <trkpt lat="47.57789" lon="4.32184">
        <ele>344.77</ele>
        <time>2020-08-19T06:28:03Z</time>
      </trkpt>
      <trkpt lat="47.57829" lon="4.32226">
        <ele>341.89</ele>
        <time>2020-08-19T06:28:11Z</time>
      </trkpt>
      <trkpt lat="47.57844" lon="4.32233">
        <ele>340.44</ele>
        <time>2020-08-19T06:28:14Z</time>
      </trkpt>
      <trkpt lat="47.57849" lon="4.32236">
        <ele>339.96</ele>
        <time>2020-08-19T06:28:15Z</time>
      </trkpt>
      <trkpt lat="47.57854" lon="4.3224">
        <ele>339.48</ele>
        <time>2020-08-19T06:28:16Z</time>
      </trkpt>
      <trkpt lat="47.57924" lon="4.32275">
        <ele>334.2</ele>
        <time>2020-08-19T06:28:26Z</time>
      </trkpt>
      <trkpt lat="47.57982" lon="4.32262">
        <ele>330.35</ele>
        <time>2020-08-19T06:28:34Z</time>
      </trkpt>
      <trkpt lat="47.57987" lon="4.32259">
        <ele>329.87</ele>
        <time>2020-08-19T06:28:35Z</time>
      </trkpt>
      <trkpt lat="47.57998" lon="4.32252">
        <ele>328.91</ele>
        <time>2020-08-19T06:28:37Z</time>
      </trkpt>
      <trkpt lat="47.58003" lon="4.3225">
        <ele>328.91</ele>
        <time>2020-08-19T06:28:38Z</time>
      </trkpt>
      <trkpt lat="47.58009" lon="4.32251">
        <ele>328.43</ele>
        <time>2020-08-19T06:28:39Z</time>
      </trkpt>
      <trkpt lat="47.58014" lon="4.32253">
        <ele>328.43</ele>
        <time>2020-08-19T06:28:40Z</time>
      </trkpt>
      <trkpt lat="47.5802" lon="4.32256">
        <ele>327.95</ele>
        <time>2020-08-19T06:28:41Z</time>
      </trkpt>
      <trkpt lat="47.58025" lon="4.3226">
        <ele>327.95</ele>
        <time>2020-08-19T06:28:42Z</time>
      </trkpt>
      <trkpt lat="47.58039" lon="4.32275">
        <ele>326.99</ele>
        <time>2020-08-19T06:28:45Z</time>
      </trkpt>
      <trkpt lat="47.58046" lon="4.32287">
        <ele>326.5</ele>
        <time>2020-08-19T06:28:47Z</time>
      </trkpt>
      <trkpt lat="47.5805" lon="4.32294">
        <ele>326.5</ele>
        <time>2020-08-19T06:28:48Z</time>
      </trkpt>
      <trkpt lat="47.58095" lon="4.3235">
        <ele>322.18</ele>
        <time>2020-08-19T06:28:59Z</time>
      </trkpt>
      <trkpt lat="47.5811" lon="4.32366">
        <ele>318.33</ele>
        <time>2020-08-19T06:29:03Z</time>
      </trkpt>
      <trkpt lat="47.58116" lon="4.32369">
        <ele>317.37</ele>
        <time>2020-08-19T06:29:04Z</time>
      </trkpt>
      <trkpt lat="47.58122" lon="4.32371">
        <ele>316.41</ele>
        <time>2020-08-19T06:29:05Z</time>
      </trkpt>
      <trkpt lat="47.58129" lon="4.32372">
        <ele>315.45</ele>
        <time>2020-08-19T06:29:06Z</time>
      </trkpt>
      <trkpt lat="47.58136" lon="4.32372">
        <ele>314.49</ele>
        <time>2020-08-19T06:29:07Z</time>
      </trkpt>
      <trkpt lat="47.58263" lon="4.32349">
        <ele>304.88</ele>
        <time>2020-08-19T06:29:24Z</time>
      </trkpt>
      <trkpt lat="47.58374" lon="4.32329">
        <ele>298.63</ele>
        <time>2020-08-19T06:29:37Z</time>
      </trkpt>
      <trkpt lat="47.58479" lon="4.32324">
        <ele>293.82</ele>
        <time>2020-08-19T06:29:50Z</time>
      </trkpt>
      <trkpt lat="47.58579" lon="4.32341">
        <ele>290.94</ele>
        <time>2020-08-19T06:30:05Z</time>
      </trkpt>
      <trkpt lat="47.58584" lon="4.32342">
        <ele>290.94</ele>
        <time>2020-08-19T06:30:06Z</time>
      </trkpt>
      <trkpt lat="47.58608" lon="4.32345">
        <ele>290.94</ele>
        <time>2020-08-19T06:30:11Z</time>
      </trkpt>
      <trkpt lat="47.58613" lon="4.32347">
        <ele>290.94</ele>
        <time>2020-08-19T06:30:12Z</time>
      </trkpt>
      <trkpt lat="47.58683" lon="4.32378">
        <ele>292.38</ele>
        <time>2020-08-19T06:30:29Z</time>
      </trkpt>
      <trkpt lat="47.58753" lon="4.32404">
        <ele>295.26</ele>
        <time>2020-08-19T06:30:47Z</time>
      </trkpt>
      <trkpt lat="47.58826" lon="4.32424">
        <ele>298.63</ele>
        <time>2020-08-19T06:31:09Z</time>
      </trkpt>
      <trkpt lat="47.58878" lon="4.32439">
        <ele>302.47</ele>
        <time>2020-08-19T06:31:30Z</time>
      </trkpt>
      <trkpt lat="47.58937" lon="4.32433">
        <ele>302.95</ele>
        <time>2020-08-19T06:31:48Z</time>
      </trkpt>
      <trkpt lat="47.58995" lon="4.32411">
        <ele>301.51</ele>
        <time>2020-08-19T06:31:59Z</time>
      </trkpt>
      <trkpt lat="47.59018" lon="4.3239">
        <ele>300.07</ele>
        <time>2020-08-19T06:32:03Z</time>
      </trkpt>
      <trkpt lat="47.59025" lon="4.32387">
        <ele>299.59</ele>
        <time>2020-08-19T06:32:04Z</time>
      </trkpt>
      <trkpt lat="47.59031" lon="4.32385">
        <ele>299.59</ele>
        <time>2020-08-19T06:32:05Z</time>
      </trkpt>
      <trkpt lat="47.59038" lon="4.32384">
        <ele>299.11</ele>
        <time>2020-08-19T06:32:06Z</time>
      </trkpt>
      <trkpt lat="47.59045" lon="4.32384">
        <ele>299.11</ele>
        <time>2020-08-19T06:32:07Z</time>
      </trkpt>
      <trkpt lat="47.59052" lon="4.32383">
        <ele>298.63</ele>
        <time>2020-08-19T06:32:08Z</time>
      </trkpt>
      <trkpt lat="47.59166" lon="4.32365">
        <ele>293.34</ele>
        <time>2020-08-19T06:32:22Z</time>
      </trkpt>
      <trkpt lat="47.59263" lon="4.32373">
        <ele>290.94</ele>
        <time>2020-08-19T06:32:34Z</time>
      </trkpt>
      <trkpt lat="47.5927" lon="4.32375">
        <ele>290.94</ele>
        <time>2020-08-19T06:32:35Z</time>
      </trkpt>
      <trkpt lat="47.59277" lon="4.32378">
        <ele>290.94</ele>
        <time>2020-08-19T06:32:36Z</time>
      </trkpt>
      <trkpt lat="47.59283" lon="4.32382">
        <ele>290.94</ele>
        <time>2020-08-19T06:32:37Z</time>
      </trkpt>
      <trkpt lat="47.59354" lon="4.32437">
        <ele>289.01</ele>
        <time>2020-08-19T06:32:51Z</time>
      </trkpt>
      <trkpt lat="47.59429" lon="4.32489">
        <ele>282.77</ele>
        <time>2020-08-19T06:33:03Z</time>
      </trkpt>
      <trkpt lat="47.59451" lon="4.32503">
        <ele>278.44</ele>
        <time>2020-08-19T06:33:11Z</time>
      </trkpt>
      <trkpt lat="47.59526" lon="4.32485">
        <ele>265.46</ele>
        <time>2020-08-19T06:33:28Z</time>
      </trkpt>
      <trkpt lat="47.5959" lon="4.32478">
        <ele>257.77</ele>
        <time>2020-08-19T06:33:44Z</time>
      </trkpt>
      <trkpt lat="47.59631" lon="4.32506">
        <ele>256.33</ele>
        <time>2020-08-19T06:33:57Z</time>
      </trkpt>
      <trkpt lat="47.59658" lon="4.32512">
        <ele>253.44</ele>
        <time>2020-08-19T06:34:06Z</time>
      </trkpt>
      <trkpt lat="47.59662" lon="4.32509">
        <ele>252.96</ele>
        <time>2020-08-19T06:34:07Z</time>
      </trkpt>
      <trkpt lat="47.59667" lon="4.32506">
        <ele>252.48</ele>
        <time>2020-08-19T06:34:08Z</time>
      </trkpt>
      <trkpt lat="47.59677" lon="4.32498">
        <ele>252</ele>
        <time>2020-08-19T06:34:10Z</time>
      </trkpt>
      <trkpt lat="47.59683" lon="4.32495">
        <ele>251.52</ele>
        <time>2020-08-19T06:34:11Z</time>
      </trkpt>
      <trkpt lat="47.59688" lon="4.32494">
        <ele>251.04</ele>
        <time>2020-08-19T06:34:12Z</time>
      </trkpt>
      <trkpt lat="47.59694" lon="4.32495">
        <ele>250.56</ele>
        <time>2020-08-19T06:34:13Z</time>
      </trkpt>
      <trkpt lat="47.59699" lon="4.32499">
        <ele>250.08</ele>
        <time>2020-08-19T06:34:14Z</time>
      </trkpt>
      <trkpt lat="47.59703" lon="4.32504">
        <ele>249.6</ele>
        <time>2020-08-19T06:34:15Z</time>
      </trkpt>
      <trkpt lat="47.59705" lon="4.3251">
        <ele>249.6</ele>
        <time>2020-08-19T06:34:16Z</time>
      </trkpt>
      <trkpt lat="47.59707" lon="4.32515">
        <ele>249.12</ele>
        <time>2020-08-19T06:34:17Z</time>
      </trkpt>
      <trkpt lat="47.59711" lon="4.32523">
        <ele>248.64</ele>
        <time>2020-08-19T06:34:19Z</time>
      </trkpt>
      <trkpt lat="47.59714" lon="4.32524">
        <ele>248.16</ele>
        <time>2020-08-19T06:34:20Z</time>
      </trkpt>
      <trkpt lat="47.59717" lon="4.32523">
        <ele>247.68</ele>
        <time>2020-08-19T06:34:21Z</time>
      </trkpt>
      <trkpt lat="47.5972" lon="4.32521">
        <ele>247.68</ele>
        <time>2020-08-19T06:34:22Z</time>
      </trkpt>
      <trkpt lat="47.59723" lon="4.32518">
        <ele>247.68</ele>
        <time>2020-08-19T06:34:23Z</time>
      </trkpt>
      <trkpt lat="47.59726" lon="4.32514">
        <ele>247.68</ele>
        <time>2020-08-19T06:34:24Z</time>
      </trkpt>
      <trkpt lat="47.59729" lon="4.32509">
        <ele>248.16</ele>
        <time>2020-08-19T06:34:25Z</time>
      </trkpt>
      <trkpt lat="47.59762" lon="4.32454">
        <ele>246.72</ele>
        <time>2020-08-19T06:34:34Z</time>
      </trkpt>
      <trkpt lat="47.59783" lon="4.32434">
        <ele>246.72</ele>
        <time>2020-08-19T06:34:38Z</time>
      </trkpt>
      <trkpt lat="47.5983" lon="4.32394">
        <ele>243.83</ele>
        <time>2020-08-19T06:34:46Z</time>
      </trkpt>
      <trkpt lat="47.59834" lon="4.32388">
        <ele>243.35</ele>
        <time>2020-08-19T06:34:47Z</time>
      </trkpt>
      <trkpt lat="47.59838" lon="4.32381">
        <ele>242.87</ele>
        <time>2020-08-19T06:34:48Z</time>
      </trkpt>
      <trkpt lat="47.59853" lon="4.32355">
        <ele>241.91</ele>
        <time>2020-08-19T06:34:52Z</time>
      </trkpt>
      <trkpt lat="47.59915" lon="4.32297">
        <ele>238.06</ele>
        <time>2020-08-19T06:35:09Z</time>
      </trkpt>
      <trkpt lat="47.59931" lon="4.32251">
        <ele>239.02</ele>
        <time>2020-08-19T06:35:20Z</time>
      </trkpt>
      <trkpt lat="47.59941" lon="4.32211">
        <ele>239.99</ele>
        <time>2020-08-19T06:35:31Z</time>
      </trkpt>
      <trkpt lat="47.59975" lon="4.32131">
        <ele>239.02</ele>
        <time>2020-08-19T06:35:46Z</time>
      </trkpt>
      <trkpt lat="47.60011" lon="4.32057">
        <ele>238.54</ele>
        <time>2020-08-19T06:36:01Z</time>
      </trkpt>
      <trkpt lat="47.6006" lon="4.31997">
        <ele>236.62</ele>
        <time>2020-08-19T06:36:17Z</time>
      </trkpt>
      <trkpt lat="47.60112" lon="4.31975">
        <ele>235.18</ele>
        <time>2020-08-19T06:36:31Z</time>
      </trkpt>
      <trkpt lat="47.60177" lon="4.31938">
        <ele>233.26</ele>
        <time>2020-08-19T06:36:45Z</time>
      </trkpt>
      <trkpt lat="47.60228" lon="4.31915">
        <ele>230.85</ele>
        <time>2020-08-19T06:36:55Z</time>
      </trkpt>
      <trkpt lat="47.60233" lon="4.31914">
        <ele>230.37</ele>
        <time>2020-08-19T06:36:56Z</time>
      </trkpt>
      <trkpt lat="47.60303" lon="4.31895">
        <ele>223.64</ele>
        <time>2020-08-19T06:37:08Z</time>
      </trkpt>
      <trkpt lat="47.60357" lon="4.31891">
        <ele>222.2</ele>
        <time>2020-08-19T06:37:17Z</time>
      </trkpt>
      <trkpt lat="47.60362" lon="4.3189">
        <ele>222.2</ele>
        <time>2020-08-19T06:37:18Z</time>
      </trkpt>
      <trkpt lat="47.60447" lon="4.31829">
        <ele>225.09</ele>
        <time>2020-08-19T06:37:35Z</time>
      </trkpt>
      <trkpt lat="47.60499" lon="4.31773">
        <ele>227.49</ele>
        <time>2020-08-19T06:37:47Z</time>
      </trkpt>
      <trkpt lat="47.60504" lon="4.31771">
        <ele>227.49</ele>
        <time>2020-08-19T06:37:48Z</time>
      </trkpt>
      <trkpt lat="47.60594" lon="4.31725">
        <ele>227.01</ele>
        <time>2020-08-19T06:38:06Z</time>
      </trkpt>
      <trkpt lat="47.6061" lon="4.31718">
        <ele>227.01</ele>
        <time>2020-08-19T06:38:10Z</time>
      </trkpt>
      <trkpt lat="47.60619" lon="4.31715">
        <ele>227.49</ele>
        <time>2020-08-19T06:38:12Z</time>
      </trkpt>
      <trkpt lat="47.60702" lon="4.31687">
        <ele>227.01</ele>
        <time>2020-08-19T06:38:32Z</time>
      </trkpt>
      <trkpt lat="47.60764" lon="4.31673">
        <ele>225.57</ele>
        <time>2020-08-19T06:38:47Z</time>
      </trkpt>
      <trkpt lat="47.60818" lon="4.31656">
        <ele>226.53</ele>
        <time>2020-08-19T06:39:00Z</time>
      </trkpt>
      <trkpt lat="47.60857" lon="4.31628">
        <ele>227.49</ele>
        <time>2020-08-19T06:39:13Z</time>
      </trkpt>
      <trkpt lat="47.60915" lon="4.31555">
        <ele>227.97</ele>
        <time>2020-08-19T06:39:28Z</time>
      </trkpt>
      <trkpt lat="47.60939" lon="4.31487">
        <ele>230.37</ele>
        <time>2020-08-19T06:39:41Z</time>
      </trkpt>
      <trkpt lat="47.60984" lon="4.31437">
        <ele>228.93</ele>
        <time>2020-08-19T06:39:56Z</time>
      </trkpt>
      <trkpt lat="47.60988" lon="4.31435">
        <ele>228.93</ele>
        <time>2020-08-19T06:39:57Z</time>
      </trkpt>
      <trkpt lat="47.61062" lon="4.31398">
        <ele>228.45</ele>
        <time>2020-08-19T06:40:14Z</time>
      </trkpt>
      <trkpt lat="47.61126" lon="4.31343">
        <ele>230.37</ele>
        <time>2020-08-19T06:40:33Z</time>
      </trkpt>
      <trkpt lat="47.61138" lon="4.31326">
        <ele>230.37</ele>
        <time>2020-08-19T06:40:37Z</time>
      </trkpt>
      <trkpt lat="47.61141" lon="4.31321">
        <ele>230.37</ele>
        <time>2020-08-19T06:40:38Z</time>
      </trkpt>
      <trkpt lat="47.61197" lon="4.31212">
        <ele>229.41</ele>
        <time>2020-08-19T06:40:57Z</time>
      </trkpt>
      <trkpt lat="47.61224" lon="4.31184">
        <ele>231.81</ele>
        <time>2020-08-19T06:41:10Z</time>
      </trkpt>
      <trkpt lat="47.61238" lon="4.31194">
        <ele>234.22</ele>
        <time>2020-08-19T06:41:21Z</time>
      </trkpt>
      <trkpt lat="47.6124" lon="4.31194">
        <ele>234.22</ele>
        <time>2020-08-19T06:41:22Z</time>
      </trkpt>
      <trkpt lat="47.61256" lon="4.31186">
        <ele>237.1</ele>
        <time>2020-08-19T06:41:34Z</time>
      </trkpt>
      <trkpt lat="47.61257" lon="4.31186">
        <ele>237.1</ele>
        <time>2020-08-19T06:41:35Z</time>
      </trkpt>
      <trkpt lat="47.61259" lon="4.31187">
        <ele>237.58</ele>
        <time>2020-08-19T06:41:36Z</time>
      </trkpt>
      <trkpt lat="47.6126" lon="4.31189">
        <ele>238.06</ele>
        <time>2020-08-19T06:41:37Z</time>
      </trkpt>
      <trkpt lat="47.61261" lon="4.31192">
        <ele>238.06</ele>
        <time>2020-08-19T06:41:38Z</time>
      </trkpt>
      <trkpt lat="47.61293" lon="4.31267">
        <ele>238.06</ele>
        <time>2020-08-19T06:41:50Z</time>
      </trkpt>
      <trkpt lat="47.61311" lon="4.31299">
        <ele>237.1</ele>
        <time>2020-08-19T06:41:54Z</time>
      </trkpt>
      <trkpt lat="47.61417" lon="4.3142">
        <ele>230.85</ele>
        <time>2020-08-19T06:42:11Z</time>
      </trkpt>
      <trkpt lat="47.61499" lon="4.31515">
        <ele>226.05</ele>
        <time>2020-08-19T06:42:24Z</time>
      </trkpt>
      <trkpt lat="47.61582" lon="4.31614">
        <ele>223.16</ele>
        <time>2020-08-19T06:42:39Z</time>
      </trkpt>
      <trkpt lat="47.61609" lon="4.31645">
        <ele>222.2</ele>
        <time>2020-08-19T06:42:44Z</time>
      </trkpt>
      <trkpt lat="47.61614" lon="4.31652">
        <ele>221.72</ele>
        <time>2020-08-19T06:42:45Z</time>
      </trkpt>
      <trkpt lat="47.6162" lon="4.31658">
        <ele>221.72</ele>
        <time>2020-08-19T06:42:46Z</time>
      </trkpt>
      <trkpt lat="47.61695" lon="4.31747">
        <ele>218.84</ele>
        <time>2020-08-19T06:43:00Z</time>
      </trkpt>
      <trkpt lat="47.61701" lon="4.31752">
        <ele>218.84</ele>
        <time>2020-08-19T06:43:01Z</time>
      </trkpt>
      <trkpt lat="47.618" lon="4.31832">
        <ele>217.88</ele>
        <time>2020-08-19T06:43:18Z</time>
      </trkpt>
      <trkpt lat="47.61881" lon="4.31887">
        <ele>217.4</ele>
        <time>2020-08-19T06:43:32Z</time>
      </trkpt>
      <trkpt lat="47.61992" lon="4.31963">
        <ele>218.36</ele>
        <time>2020-08-19T06:43:52Z</time>
      </trkpt>
      <trkpt lat="47.62065" lon="4.3201">
        <ele>220.76</ele>
        <time>2020-08-19T06:44:05Z</time>
      </trkpt>
      <trkpt lat="47.62071" lon="4.32012">
        <ele>220.76</ele>
        <time>2020-08-19T06:44:06Z</time>
      </trkpt>
      <trkpt lat="47.62077" lon="4.32013">
        <ele>220.76</ele>
        <time>2020-08-19T06:44:07Z</time>
      </trkpt>
      <trkpt lat="47.62096" lon="4.32011">
        <ele>219.32</ele>
        <time>2020-08-19T06:44:10Z</time>
      </trkpt>
      <trkpt lat="47.62102" lon="4.3201">
        <ele>219.32</ele>
        <time>2020-08-19T06:44:11Z</time>
      </trkpt>
      <trkpt lat="47.62177" lon="4.31973">
        <ele>215.95</ele>
        <time>2020-08-19T06:44:26Z</time>
      </trkpt>
      <trkpt lat="47.62209" lon="4.31966">
        <ele>215.95</ele>
        <time>2020-08-19T06:44:33Z</time>
      </trkpt>
      <trkpt lat="47.62214" lon="4.31968">
        <ele>215.95</ele>
        <time>2020-08-19T06:44:34Z</time>
      </trkpt>
      <trkpt lat="47.62218" lon="4.31971">
        <ele>215.95</ele>
        <time>2020-08-19T06:44:35Z</time>
      </trkpt>
      <trkpt lat="47.62221" lon="4.31975">
        <ele>215.95</ele>
        <time>2020-08-19T06:44:36Z</time>
      </trkpt>
      <trkpt lat="47.62224" lon="4.31981">
        <ele>215.95</ele>
        <time>2020-08-19T06:44:37Z</time>
      </trkpt>
      <trkpt lat="47.62227" lon="4.31987">
        <ele>215.95</ele>
        <time>2020-08-19T06:44:38Z</time>
      </trkpt>
      <trkpt lat="47.62238" lon="4.32016">
        <ele>215.47</ele>
        <time>2020-08-19T06:44:42Z</time>
      </trkpt>
      <trkpt lat="47.62238" lon="4.32025">
        <ele>214.99</ele>
        <time>2020-08-19T06:44:43Z</time>
      </trkpt>
      <trkpt lat="47.62238" lon="4.32033">
        <ele>214.99</ele>
        <time>2020-08-19T06:44:44Z</time>
      </trkpt>
      <trkpt lat="47.62235" lon="4.32041">
        <ele>214.99</ele>
        <time>2020-08-19T06:44:45Z</time>
      </trkpt>
      <trkpt lat="47.62232" lon="4.32048">
        <ele>215.47</ele>
        <time>2020-08-19T06:44:46Z</time>
      </trkpt>
      <trkpt lat="47.62229" lon="4.32054">
        <ele>215.47</ele>
        <time>2020-08-19T06:44:47Z</time>
      </trkpt>
      <trkpt lat="47.62169" lon="4.32173">
        <ele>220.28</ele>
        <time>2020-08-19T06:45:07Z</time>
      </trkpt>
      <trkpt lat="47.6215" lon="4.32218">
        <ele>222.2</ele>
        <time>2020-08-19T06:45:15Z</time>
      </trkpt>
      <trkpt lat="47.62126" lon="4.32277">
        <ele>220.76</ele>
        <time>2020-08-19T06:45:28Z</time>
      </trkpt>
      <trkpt lat="47.62118" lon="4.32307">
        <ele>220.28</ele>
        <time>2020-08-19T06:45:36Z</time>
      </trkpt>
      <trkpt lat="47.62122" lon="4.3231">
        <ele>220.28</ele>
        <time>2020-08-19T06:45:41Z</time>
      </trkpt>
      <trkpt lat="47.62137" lon="4.32275">
        <ele>218.84</ele>
        <time>2020-08-19T06:45:55Z</time>
      </trkpt>
      <trkpt lat="47.62163" lon="4.32208">
        <ele>215.95</ele>
        <time>2020-08-19T06:46:10Z</time>
      </trkpt>
      <trkpt lat="47.62212" lon="4.32102">
        <ele>213.55</ele>
        <time>2020-08-19T06:46:32Z</time>
      </trkpt>
      <trkpt lat="47.62262" lon="4.32001">
        <ele>213.07</ele>
        <time>2020-08-19T06:46:54Z</time>
      </trkpt>
      <trkpt lat="47.62308" lon="4.31927">
        <ele>213.07</ele>
        <time>2020-08-19T06:47:12Z</time>
      </trkpt>
      <trkpt lat="47.62352" lon="4.31858">
        <ele>215.95</ele>
        <time>2020-08-19T06:47:32Z</time>
      </trkpt>
      <trkpt lat="47.62379" lon="4.31811">
        <ele>217.4</ele>
        <time>2020-08-19T06:47:46Z</time>
      </trkpt>
      <trkpt lat="47.6242" lon="4.31744">
        <ele>219.32</ele>
        <time>2020-08-19T06:48:05Z</time>
      </trkpt>
      <trkpt lat="47.62467" lon="4.31682">
        <ele>220.76</ele>
        <time>2020-08-19T06:48:24Z</time>
      </trkpt>
      <trkpt lat="47.62507" lon="4.31623">
        <ele>223.16</ele>
        <time>2020-08-19T06:48:41Z</time>
      </trkpt>
      <trkpt lat="47.62559" lon="4.31562">
        <ele>223.64</ele>
        <time>2020-08-19T06:49:00Z</time>
      </trkpt>
      <trkpt lat="47.62606" lon="4.31507">
        <ele>224.12</ele>
        <time>2020-08-19T06:49:17Z</time>
      </trkpt>
      <trkpt lat="47.62655" lon="4.31447">
        <ele>224.61</ele>
        <time>2020-08-19T06:49:36Z</time>
      </trkpt>
      <trkpt lat="47.62695" lon="4.31401">
        <ele>225.09</ele>
        <time>2020-08-19T06:49:50Z</time>
      </trkpt>
      <trkpt lat="47.62752" lon="4.31336">
        <ele>226.53</ele>
        <time>2020-08-19T06:50:11Z</time>
      </trkpt>
      <trkpt lat="47.62796" lon="4.31276">
        <ele>228.45</ele>
        <time>2020-08-19T06:50:29Z</time>
      </trkpt>
      <trkpt lat="47.62839" lon="4.31214">
        <ele>229.89</ele>
        <time>2020-08-19T06:50:47Z</time>
      </trkpt>
      <trkpt lat="47.62888" lon="4.31133">
        <ele>230.37</ele>
        <time>2020-08-19T06:51:08Z</time>
      </trkpt>
      <trkpt lat="47.62928" lon="4.31065">
        <ele>229.41</ele>
        <time>2020-08-19T06:51:24Z</time>
      </trkpt>
      <trkpt lat="47.62956" lon="4.31011">
        <ele>230.85</ele>
        <time>2020-08-19T06:51:39Z</time>
      </trkpt>
      <trkpt lat="47.62973" lon="4.30966">
        <ele>232.78</ele>
        <time>2020-08-19T06:51:56Z</time>
      </trkpt>
      <trkpt lat="47.62991" lon="4.30924">
        <ele>239.99</ele>
        <time>2020-08-19T06:52:17Z</time>
      </trkpt>
      <trkpt lat="47.6301" lon="4.30886">
        <ele>247.2</ele>
        <time>2020-08-19T06:52:34Z</time>
      </trkpt>
      <trkpt lat="47.63025" lon="4.30856">
        <ele>254.89</ele>
        <time>2020-08-19T06:52:45Z</time>
      </trkpt>
      <trkpt lat="47.63055" lon="4.30806">
        <ele>267.86</ele>
        <time>2020-08-19T06:53:02Z</time>
      </trkpt>
      <trkpt lat="47.63081" lon="4.3075">
        <ele>272.67</ele>
        <time>2020-08-19T06:53:16Z</time>
      </trkpt>
      <trkpt lat="47.63108" lon="4.30675">
        <ele>268.83</ele>
        <time>2020-08-19T06:53:29Z</time>
      </trkpt>
      <trkpt lat="47.63121" lon="4.30608">
        <ele>264.98</ele>
        <time>2020-08-19T06:53:46Z</time>
      </trkpt>
      <trkpt lat="47.63141" lon="4.30555">
        <ele>271.71</ele>
        <time>2020-08-19T06:54:01Z</time>
      </trkpt>
      <trkpt lat="47.63153" lon="4.30512">
        <ele>279.4</ele>
        <time>2020-08-19T06:54:16Z</time>
      </trkpt>
      <trkpt lat="47.63156" lon="4.30467">
        <ele>278.44</ele>
        <time>2020-08-19T06:54:33Z</time>
      </trkpt>
      <trkpt lat="47.63159" lon="4.3043">
        <ele>281.8</ele>
        <time>2020-08-19T06:54:50Z</time>
      </trkpt>
      <trkpt lat="47.63172" lon="4.30395">
        <ele>284.69</ele>
        <time>2020-08-19T06:55:04Z</time>
      </trkpt>
      <trkpt lat="47.63188" lon="4.30354">
        <ele>291.42</ele>
        <time>2020-08-19T06:55:16Z</time>
      </trkpt>
      <trkpt lat="47.63216" lon="4.30279">
        <ele>299.11</ele>
        <time>2020-08-19T06:55:31Z</time>
      </trkpt>
      <trkpt lat="47.63224" lon="4.30252">
        <ele>301.03</ele>
        <time>2020-08-19T06:55:36Z</time>
      </trkpt>
      <trkpt lat="47.6322" lon="4.30192">
        <ele>301.51</ele>
        <time>2020-08-19T06:55:45Z</time>
      </trkpt>
      <trkpt lat="47.63196" lon="4.30106">
        <ele>299.11</ele>
        <time>2020-08-19T06:56:00Z</time>
      </trkpt>
      <trkpt lat="47.6318" lon="4.30044">
        <ele>299.11</ele>
        <time>2020-08-19T06:56:14Z</time>
      </trkpt>
      <trkpt lat="47.63165" lon="4.29968">
        <ele>297.67</ele>
        <time>2020-08-19T06:56:28Z</time>
      </trkpt>
      <trkpt lat="47.63147" lon="4.29906">
        <ele>294.78</ele>
        <time>2020-08-19T06:56:42Z</time>
      </trkpt>
      <trkpt lat="47.63139" lon="4.29873">
        <ele>294.78</ele>
        <time>2020-08-19T06:56:50Z</time>
      </trkpt>
      <trkpt lat="47.63128" lon="4.29833">
        <ele>295.26</ele>
        <time>2020-08-19T06:56:59Z</time>
      </trkpt>
      <trkpt lat="47.6311" lon="4.29765">
        <ele>293.34</ele>
        <time>2020-08-19T06:57:12Z</time>
      </trkpt>
      <trkpt lat="47.63094" lon="4.29701">
        <ele>294.3</ele>
        <time>2020-08-19T06:57:25Z</time>
      </trkpt>
      <trkpt lat="47.63074" lon="4.29627">
        <ele>295.26</ele>
        <time>2020-08-19T06:57:39Z</time>
      </trkpt>
      <trkpt lat="47.63052" lon="4.29564">
        <ele>296.22</ele>
        <time>2020-08-19T06:57:51Z</time>
      </trkpt>
      <trkpt lat="47.63037" lon="4.29482">
        <ele>294.3</ele>
        <time>2020-08-19T06:58:03Z</time>
      </trkpt>
      <trkpt lat="47.63028" lon="4.29427">
        <ele>290.94</ele>
        <time>2020-08-19T06:58:12Z</time>
      </trkpt>
      <trkpt lat="47.63009" lon="4.29364">
        <ele>285.17</ele>
        <time>2020-08-19T06:58:25Z</time>
      </trkpt>
      <trkpt lat="47.63003" lon="4.29322">
        <ele>277.48</ele>
        <time>2020-08-19T06:58:35Z</time>
      </trkpt>
      <trkpt lat="47.62993" lon="4.29301">
        <ele>259.21</ele>
        <time>2020-08-19T06:58:47Z</time>
      </trkpt>
      <trkpt lat="47.63013" lon="4.29326">
        <ele>257.77</ele>
        <time>2020-08-19T06:58:55Z</time>
      </trkpt>
      <trkpt lat="47.6302" lon="4.29335">
        <ele>257.77</ele>
        <time>2020-08-19T06:58:57Z</time>
      </trkpt>
      <trkpt lat="47.63034" lon="4.29354">
        <ele>257.29</ele>
        <time>2020-08-19T06:59:01Z</time>
      </trkpt>
      <trkpt lat="47.63079" lon="4.29437">
        <ele>253.44</ele>
        <time>2020-08-19T06:59:12Z</time>
      </trkpt>
      <trkpt lat="47.63092" lon="4.29473">
        <ele>252.48</ele>
        <time>2020-08-19T06:59:16Z</time>
      </trkpt>
      <trkpt lat="47.63118" lon="4.2953">
        <ele>250.08</ele>
        <time>2020-08-19T06:59:23Z</time>
      </trkpt>
      <trkpt lat="47.63155" lon="4.29586">
        <ele>246.23</ele>
        <time>2020-08-19T06:59:31Z</time>
      </trkpt>
      <trkpt lat="47.63219" lon="4.29686">
        <ele>239.51</ele>
        <time>2020-08-19T06:59:45Z</time>
      </trkpt>
      <trkpt lat="47.63233" lon="4.29704">
        <ele>238.06</ele>
        <time>2020-08-19T06:59:48Z</time>
      </trkpt>
      <trkpt lat="47.63295" lon="4.29785">
        <ele>233.74</ele>
        <time>2020-08-19T07:00:03Z</time>
      </trkpt>
      <trkpt lat="47.6334" lon="4.29842">
        <ele>234.7</ele>
        <time>2020-08-19T07:00:15Z</time>
      </trkpt>
      <trkpt lat="47.63353" lon="4.29858">
        <ele>235.18</ele>
        <time>2020-08-19T07:00:19Z</time>
      </trkpt>
      <trkpt lat="47.6336" lon="4.29869">
        <ele>234.22</ele>
        <time>2020-08-19T07:00:21Z</time>
      </trkpt>
      <trkpt lat="47.63375" lon="4.29903">
        <ele>233.26</ele>
        <time>2020-08-19T07:00:27Z</time>
      </trkpt>
      <trkpt lat="47.63376" lon="4.29909">
        <ele>232.78</ele>
        <time>2020-08-19T07:00:28Z</time>
      </trkpt>
      <trkpt lat="47.63379" lon="4.29916">
        <ele>232.3</ele>
        <time>2020-08-19T07:00:29Z</time>
      </trkpt>
      <trkpt lat="47.63389" lon="4.29938">
        <ele>231.81</ele>
        <time>2020-08-19T07:00:32Z</time>
      </trkpt>
      <trkpt lat="47.63455" lon="4.30041">
        <ele>225.09</ele>
        <time>2020-08-19T07:00:48Z</time>
      </trkpt>
      <trkpt lat="47.63497" lon="4.30102">
        <ele>224.12</ele>
        <time>2020-08-19T07:01:00Z</time>
      </trkpt>
      <trkpt lat="47.63501" lon="4.30105">
        <ele>223.64</ele>
        <time>2020-08-19T07:01:01Z</time>
      </trkpt>
      <trkpt lat="47.63505" lon="4.30106">
        <ele>222.68</ele>
        <time>2020-08-19T07:01:02Z</time>
      </trkpt>
      <trkpt lat="47.63507" lon="4.30107">
        <ele>222.68</ele>
        <time>2020-08-19T07:01:03Z</time>
      </trkpt>
      <trkpt lat="47.63509" lon="4.30107">
        <ele>222.68</ele>
        <time>2020-08-19T07:01:04Z</time>
      </trkpt>
      <trkpt lat="47.63511" lon="4.30107">
        <ele>222.2</ele>
        <time>2020-08-19T07:01:05Z</time>
      </trkpt>
      <trkpt lat="47.63513" lon="4.30107">
        <ele>221.72</ele>
        <time>2020-08-19T07:01:06Z</time>
      </trkpt>
      <trkpt lat="47.63514" lon="4.30106">
        <ele>221.24</ele>
        <time>2020-08-19T07:01:07Z</time>
      </trkpt>
      <trkpt lat="47.6353" lon="4.30089">
        <ele>223.16</ele>
        <time>2020-08-19T07:01:23Z</time>
      </trkpt>
      <trkpt lat="47.6355" lon="4.3008">
        <ele>229.41</ele>
        <time>2020-08-19T07:01:40Z</time>
      </trkpt>
      <trkpt lat="47.63573" lon="4.30068">
        <ele>232.3</ele>
        <time>2020-08-19T07:02:00Z</time>
      </trkpt>
      <trkpt lat="47.636" lon="4.30048">
        <ele>237.1</ele>
        <time>2020-08-19T07:02:25Z</time>
      </trkpt>
      <trkpt lat="47.63614" lon="4.30028">
        <ele>239.99</ele>
        <time>2020-08-19T07:02:42Z</time>
      </trkpt>
      <trkpt lat="47.63619" lon="4.30018">
        <ele>240.47</ele>
        <time>2020-08-19T07:02:49Z</time>
      </trkpt>
      <trkpt lat="47.63619" lon="4.30017">
        <ele>240.95</ele>
        <time>2020-08-19T07:02:50Z</time>
      </trkpt>
      <trkpt lat="47.6362" lon="4.30015">
        <ele>240.95</ele>
        <time>2020-08-19T07:02:51Z</time>
      </trkpt>
      <trkpt lat="47.6362" lon="4.30013">
        <ele>240.95</ele>
        <time>2020-08-19T07:02:52Z</time>
      </trkpt>
      <trkpt lat="47.63621" lon="4.30012">
        <ele>241.43</ele>
        <time>2020-08-19T07:02:53Z</time>
      </trkpt>
      <trkpt lat="47.63632" lon="4.29988">
        <ele>243.83</ele>
        <time>2020-08-19T07:03:10Z</time>
      </trkpt>
      <trkpt lat="47.63635" lon="4.29958">
        <ele>245.75</ele>
        <time>2020-08-19T07:03:28Z</time>
      </trkpt>
      <trkpt lat="47.6364" lon="4.2993">
        <ele>251.52</ele>
        <time>2020-08-19T07:03:43Z</time>
      </trkpt>
      <trkpt lat="47.63645" lon="4.29894">
        <ele>252.96</ele>
        <time>2020-08-19T07:03:59Z</time>
      </trkpt>
      <trkpt lat="47.63614" lon="4.29862">
        <ele>252</ele>
        <time>2020-08-19T07:04:19Z</time>
      </trkpt>
      <trkpt lat="47.63599" lon="4.29824">
        <ele>251.52</ele>
        <time>2020-08-19T07:04:34Z</time>
      </trkpt>
      <trkpt lat="47.63586" lon="4.29765">
        <ele>251.04</ele>
        <time>2020-08-19T07:04:51Z</time>
      </trkpt>
      <trkpt lat="47.63553" lon="4.29702">
        <ele>249.12</ele>
        <time>2020-08-19T07:05:10Z</time>
      </trkpt>
      <trkpt lat="47.6351" lon="4.29647">
        <ele>250.08</ele>
        <time>2020-08-19T07:05:31Z</time>
      </trkpt>
      <trkpt lat="47.63475" lon="4.29584">
        <ele>250.56</ele>
        <time>2020-08-19T07:05:51Z</time>
      </trkpt>
      <trkpt lat="47.63461" lon="4.29516">
        <ele>251.04</ele>
        <time>2020-08-19T07:06:08Z</time>
      </trkpt>
      <trkpt lat="47.63432" lon="4.29461">
        <ele>252.48</ele>
        <time>2020-08-19T07:06:26Z</time>
      </trkpt>
      <trkpt lat="47.63385" lon="4.29406">
        <ele>254.41</ele>
        <time>2020-08-19T07:06:47Z</time>
      </trkpt>
      <trkpt lat="47.63338" lon="4.2935">
        <ele>255.85</ele>
        <time>2020-08-19T07:07:08Z</time>
      </trkpt>
      <trkpt lat="47.63299" lon="4.29309">
        <ele>257.29</ele>
        <time>2020-08-19T07:07:26Z</time>
      </trkpt>
      <trkpt lat="47.63263" lon="4.29267">
        <ele>259.69</ele>
        <time>2020-08-19T07:07:45Z</time>
      </trkpt>
      <trkpt lat="47.63234" lon="4.29221">
        <ele>262.58</ele>
        <time>2020-08-19T07:08:07Z</time>
      </trkpt>
      <trkpt lat="47.6322" lon="4.29178">
        <ele>264.02</ele>
        <time>2020-08-19T07:08:29Z</time>
      </trkpt>
      <trkpt lat="47.63213" lon="4.29129">
        <ele>265.46</ele>
        <time>2020-08-19T07:08:54Z</time>
      </trkpt>
      <trkpt lat="47.63211" lon="4.29081">
        <ele>267.86</ele>
        <time>2020-08-19T07:09:17Z</time>
      </trkpt>
      <trkpt lat="47.63212" lon="4.2903">
        <ele>270.27</ele>
        <time>2020-08-19T07:09:42Z</time>
      </trkpt>
      <trkpt lat="47.63212" lon="4.28984">
        <ele>273.63</ele>
        <time>2020-08-19T07:10:06Z</time>
      </trkpt>
      <trkpt lat="47.63208" lon="4.28948">
        <ele>277</ele>
        <time>2020-08-19T07:10:26Z</time>
      </trkpt>
      <trkpt lat="47.63199" lon="4.28921">
        <ele>280.36</ele>
        <time>2020-08-19T07:10:42Z</time>
      </trkpt>
      <trkpt lat="47.63188" lon="4.28896">
        <ele>282.28</ele>
        <time>2020-08-19T07:10:58Z</time>
      </trkpt>
      <trkpt lat="47.63175" lon="4.28866">
        <ele>285.65</ele>
        <time>2020-08-19T07:11:18Z</time>
      </trkpt>
      <trkpt lat="47.63171" lon="4.28849">
        <ele>287.57</ele>
        <time>2020-08-19T07:11:29Z</time>
      </trkpt>
      <trkpt lat="47.63168" lon="4.28819">
        <ele>290.94</ele>
        <time>2020-08-19T07:11:48Z</time>
      </trkpt>
      <trkpt lat="47.6316" lon="4.28777">
        <ele>292.86</ele>
        <time>2020-08-19T07:12:11Z</time>
      </trkpt>
      <trkpt lat="47.63153" lon="4.28746">
        <ele>294.3</ele>
        <time>2020-08-19T07:12:28Z</time>
      </trkpt>
      <trkpt lat="47.63138" lon="4.28717">
        <ele>295.74</ele>
        <time>2020-08-19T07:12:48Z</time>
      </trkpt>
      <trkpt lat="47.63123" lon="4.28695">
        <ele>298.15</ele>
        <time>2020-08-19T07:13:05Z</time>
      </trkpt>
      <trkpt lat="47.63111" lon="4.28666">
        <ele>301.03</ele>
        <time>2020-08-19T07:13:24Z</time>
      </trkpt>
      <trkpt lat="47.63102" lon="4.28626">
        <ele>302.47</ele>
        <time>2020-08-19T07:13:47Z</time>
      </trkpt>
      <trkpt lat="47.63089" lon="4.28585">
        <ele>304.39</ele>
        <time>2020-08-19T07:14:10Z</time>
      </trkpt>
      <trkpt lat="47.63075" lon="4.28555">
        <ele>305.84</ele>
        <time>2020-08-19T07:14:29Z</time>
      </trkpt>
      <trkpt lat="47.63057" lon="4.28516">
        <ele>308.72</ele>
        <time>2020-08-19T07:14:51Z</time>
      </trkpt>
      <trkpt lat="47.63039" lon="4.28483">
        <ele>313.53</ele>
        <time>2020-08-19T07:15:09Z</time>
      </trkpt>
      <trkpt lat="47.63022" lon="4.28441">
        <ele>316.89</ele>
        <time>2020-08-19T07:15:29Z</time>
      </trkpt>
      <trkpt lat="47.62997" lon="4.28384">
        <ele>318.33</ele>
        <time>2020-08-19T07:15:52Z</time>
      </trkpt>
      <trkpt lat="47.62964" lon="4.28317">
        <ele>316.89</ele>
        <time>2020-08-19T07:16:20Z</time>
      </trkpt>
      <trkpt lat="47.62937" lon="4.28257">
        <ele>317.37</ele>
        <time>2020-08-19T07:16:43Z</time>
      </trkpt>
      <trkpt lat="47.62928" lon="4.28199">
        <ele>316.89</ele>
        <time>2020-08-19T07:16:58Z</time>
      </trkpt>
      <trkpt lat="47.6291" lon="4.28134">
        <ele>317.85</ele>
        <time>2020-08-19T07:17:14Z</time>
      </trkpt>
      <trkpt lat="47.62886" lon="4.28065">
        <ele>317.85</ele>
        <time>2020-08-19T07:17:32Z</time>
      </trkpt>
      <trkpt lat="47.62869" lon="4.28014">
        <ele>319.3</ele>
        <time>2020-08-19T07:17:46Z</time>
      </trkpt>
      <trkpt lat="47.62837" lon="4.27944">
        <ele>322.18</ele>
        <time>2020-08-19T07:18:07Z</time>
      </trkpt>
      <trkpt lat="47.62812" lon="4.27917">
        <ele>323.14</ele>
        <time>2020-08-19T07:18:23Z</time>
      </trkpt>
      <trkpt lat="47.62796" lon="4.27902">
        <ele>330.83</ele>
        <time>2020-08-19T07:18:38Z</time>
      </trkpt>
      <trkpt lat="47.62785" lon="4.2789">
        <ele>336.6</ele>
        <time>2020-08-19T07:18:47Z</time>
      </trkpt>
      <trkpt lat="47.62763" lon="4.27873">
        <ele>347.65</ele>
        <time>2020-08-19T07:19:03Z</time>
      </trkpt>
      <trkpt lat="47.62748" lon="4.27864">
        <ele>354.86</ele>
        <time>2020-08-19T07:19:13Z</time>
      </trkpt>
      <trkpt lat="47.6273" lon="4.27858">
        <ele>362.55</ele>
        <time>2020-08-19T07:19:24Z</time>
      </trkpt>
      <trkpt lat="47.62705" lon="4.27855">
        <ele>369.28</ele>
        <time>2020-08-19T07:19:38Z</time>
      </trkpt>
      <trkpt lat="47.62686" lon="4.27854">
        <ele>376.49</ele>
        <time>2020-08-19T07:19:51Z</time>
      </trkpt>
      <trkpt lat="47.62657" lon="4.27857">
        <ele>378.42</ele>
        <time>2020-08-19T07:20:06Z</time>
      </trkpt>
      <trkpt lat="47.62621" lon="4.27865">
        <ele>371.69</ele>
        <time>2020-08-19T07:20:22Z</time>
      </trkpt>
      <trkpt lat="47.62617" lon="4.27866">
        <ele>370.73</ele>
        <time>2020-08-19T07:20:24Z</time>
      </trkpt>
      <trkpt lat="47.62586" lon="4.27873">
        <ele>375.53</ele>
        <time>2020-08-19T07:20:39Z</time>
      </trkpt>
      <trkpt lat="47.62552" lon="4.27885">
        <ele>375.05</ele>
        <time>2020-08-19T07:20:51Z</time>
      </trkpt>
      <trkpt lat="47.62524" lon="4.27897">
        <ele>366.88</ele>
        <time>2020-08-19T07:21:03Z</time>
      </trkpt>
      <trkpt lat="47.62488" lon="4.27907">
        <ele>361.11</ele>
        <time>2020-08-19T07:21:16Z</time>
      </trkpt>
      <trkpt lat="47.62453" lon="4.27914">
        <ele>362.55</ele>
        <time>2020-08-19T07:21:29Z</time>
      </trkpt>
      <trkpt lat="47.62416" lon="4.27931">
        <ele>358.23</ele>
        <time>2020-08-19T07:21:41Z</time>
      </trkpt>
      <trkpt lat="47.62381" lon="4.27945">
        <ele>353.9</ele>
        <time>2020-08-19T07:21:53Z</time>
      </trkpt>
      <trkpt lat="47.6236" lon="4.2795">
        <ele>355.34</ele>
        <time>2020-08-19T07:22:04Z</time>
      </trkpt>
      <trkpt lat="47.62342" lon="4.27956">
        <ele>357.75</ele>
        <time>2020-08-19T07:22:13Z</time>
      </trkpt>
      <trkpt lat="47.62306" lon="4.27966">
        <ele>361.11</ele>
        <time>2020-08-19T07:22:27Z</time>
      </trkpt>
      <trkpt lat="47.62259" lon="4.27979">
        <ele>364.96</ele>
        <time>2020-08-19T07:22:43Z</time>
      </trkpt>
      <trkpt lat="47.62224" lon="4.27983">
        <ele>360.63</ele>
        <time>2020-08-19T07:22:55Z</time>
      </trkpt>
      <trkpt lat="47.62202" lon="4.27987">
        <ele>361.11</ele>
        <time>2020-08-19T07:23:08Z</time>
      </trkpt>
      <trkpt lat="47.62179" lon="4.27989">
        <ele>367.84</ele>
        <time>2020-08-19T07:23:22Z</time>
      </trkpt>
      <trkpt lat="47.62177" lon="4.27989">
        <ele>367.84</ele>
        <time>2020-08-19T07:23:23Z</time>
      </trkpt>
      <trkpt lat="47.62149" lon="4.27991">
        <ele>371.69</ele>
        <time>2020-08-19T07:23:38Z</time>
      </trkpt>
      <trkpt lat="47.62128" lon="4.27995">
        <ele>374.09</ele>
        <time>2020-08-19T07:23:52Z</time>
      </trkpt>
      <trkpt lat="47.62109" lon="4.27999">
        <ele>375.05</ele>
        <time>2020-08-19T07:24:07Z</time>
      </trkpt>
      <trkpt lat="47.62092" lon="4.28004">
        <ele>375.53</ele>
        <time>2020-08-19T07:24:22Z</time>
      </trkpt>
      <trkpt lat="47.62074" lon="4.2801">
        <ele>377.94</ele>
        <time>2020-08-19T07:24:38Z</time>
      </trkpt>
      <trkpt lat="47.62053" lon="4.28018">
        <ele>379.86</ele>
        <time>2020-08-19T07:24:55Z</time>
      </trkpt>
      <trkpt lat="47.62031" lon="4.28024">
        <ele>378.9</ele>
        <time>2020-08-19T07:25:11Z</time>
      </trkpt>
      <trkpt lat="47.6201" lon="4.28033">
        <ele>381.78</ele>
        <time>2020-08-19T07:25:25Z</time>
      </trkpt>
      <trkpt lat="47.61989" lon="4.28043">
        <ele>382.74</ele>
        <time>2020-08-19T07:25:38Z</time>
      </trkpt>
      <trkpt lat="47.61963" lon="4.28057">
        <ele>382.74</ele>
        <time>2020-08-19T07:25:52Z</time>
      </trkpt>
      <trkpt lat="47.61941" lon="4.2807">
        <ele>382.74</ele>
        <time>2020-08-19T07:26:04Z</time>
      </trkpt>
      <trkpt lat="47.61913" lon="4.28085">
        <ele>381.78</ele>
        <time>2020-08-19T07:26:19Z</time>
      </trkpt>
      <trkpt lat="47.61884" lon="4.28095">
        <ele>382.74</ele>
        <time>2020-08-19T07:26:33Z</time>
      </trkpt>
      <trkpt lat="47.61851" lon="4.28109">
        <ele>384.66</ele>
        <time>2020-08-19T07:26:48Z</time>
      </trkpt>
      <trkpt lat="47.61808" lon="4.28115">
        <ele>383.7</ele>
        <time>2020-08-19T07:27:01Z</time>
      </trkpt>
      <trkpt lat="47.61778" lon="4.28114">
        <ele>387.55</ele>
        <time>2020-08-19T07:27:14Z</time>
      </trkpt>
      <trkpt lat="47.61741" lon="4.28115">
        <ele>391.87</ele>
        <time>2020-08-19T07:27:28Z</time>
      </trkpt>
      <trkpt lat="47.61707" lon="4.28118">
        <ele>394.76</ele>
        <time>2020-08-19T07:27:42Z</time>
      </trkpt>
      <trkpt lat="47.61688" lon="4.28122">
        <ele>396.2</ele>
        <time>2020-08-19T07:27:50Z</time>
      </trkpt>
      <trkpt lat="47.61649" lon="4.28127">
        <ele>397.64</ele>
        <time>2020-08-19T07:28:06Z</time>
      </trkpt>
      <trkpt lat="47.61613" lon="4.28136">
        <ele>399.57</ele>
        <time>2020-08-19T07:28:19Z</time>
      </trkpt>
      <trkpt lat="47.61608" lon="4.28137">
        <ele>400.05</ele>
        <time>2020-08-19T07:28:21Z</time>
      </trkpt>
      <trkpt lat="47.61597" lon="4.28142">
        <ele>400.53</ele>
        <time>2020-08-19T07:28:25Z</time>
      </trkpt>
      <trkpt lat="47.61592" lon="4.28144">
        <ele>401.01</ele>
        <time>2020-08-19T07:28:27Z</time>
      </trkpt>
      <trkpt lat="47.6158" lon="4.28147">
        <ele>401.01</ele>
        <time>2020-08-19T07:28:31Z</time>
      </trkpt>
      <trkpt lat="47.61537" lon="4.28165">
        <ele>400.05</ele>
        <time>2020-08-19T07:28:48Z</time>
      </trkpt>
      <trkpt lat="47.61505" lon="4.28182">
        <ele>399.08</ele>
        <time>2020-08-19T07:29:00Z</time>
      </trkpt>
      <trkpt lat="47.61464" lon="4.28205">
        <ele>398.6</ele>
        <time>2020-08-19T07:29:15Z</time>
      </trkpt>
      <trkpt lat="47.61453" lon="4.2821">
        <ele>399.08</ele>
        <time>2020-08-19T07:29:20Z</time>
      </trkpt>
      <trkpt lat="47.61418" lon="4.28205">
        <ele>402.93</ele>
        <time>2020-08-19T07:29:32Z</time>
      </trkpt>
      <trkpt lat="47.61379" lon="4.28194">
        <ele>406.77</ele>
        <time>2020-08-19T07:29:42Z</time>
      </trkpt>
      <trkpt lat="47.61343" lon="4.28188">
        <ele>407.26</ele>
        <time>2020-08-19T07:29:48Z</time>
      </trkpt>
      <trkpt lat="47.61282" lon="4.28174">
        <ele>399.57</ele>
        <time>2020-08-19T07:30:00Z</time>
      </trkpt>
      <trkpt lat="47.61242" lon="4.28102">
        <ele>390.91</ele>
        <time>2020-08-19T07:30:14Z</time>
      </trkpt>
      <trkpt lat="47.61215" lon="4.28033">
        <ele>387.55</ele>
        <time>2020-08-19T07:30:22Z</time>
      </trkpt>
      <trkpt lat="47.61212" lon="4.28024">
        <ele>387.55</ele>
        <time>2020-08-19T07:30:23Z</time>
      </trkpt>
      <trkpt lat="47.61143" lon="4.27885">
        <ele>374.09</ele>
        <time>2020-08-19T07:30:38Z</time>
      </trkpt>
      <trkpt lat="47.61056" lon="4.27766">
        <ele>349.1</ele>
        <time>2020-08-19T07:30:54Z</time>
      </trkpt>
      <trkpt lat="47.61006" lon="4.27715">
        <ele>342.37</ele>
        <time>2020-08-19T07:31:07Z</time>
      </trkpt>
      <trkpt lat="47.60943" lon="4.27646">
        <ele>339.96</ele>
        <time>2020-08-19T07:31:28Z</time>
      </trkpt>
      <trkpt lat="47.60903" lon="4.27593">
        <ele>340.92</ele>
        <time>2020-08-19T07:31:47Z</time>
      </trkpt>
      <trkpt lat="47.6087" lon="4.27548">
        <ele>340.44</ele>
        <time>2020-08-19T07:32:03Z</time>
      </trkpt>
      <trkpt lat="47.60825" lon="4.27483">
        <ele>338.52</ele>
        <time>2020-08-19T07:32:22Z</time>
      </trkpt>
      <trkpt lat="47.60754" lon="4.2743">
        <ele>335.64</ele>
        <time>2020-08-19T07:32:43Z</time>
      </trkpt>
      <trkpt lat="47.60667" lon="4.27377">
        <ele>329.39</ele>
        <time>2020-08-19T07:33:00Z</time>
      </trkpt>
      <trkpt lat="47.6058" lon="4.27352">
        <ele>326.02</ele>
        <time>2020-08-19T07:33:17Z</time>
      </trkpt>
      <trkpt lat="47.60502" lon="4.27348">
        <ele>325.06</ele>
        <time>2020-08-19T07:33:35Z</time>
      </trkpt>
      <trkpt lat="47.60445" lon="4.27359">
        <ele>323.62</ele>
        <time>2020-08-19T07:33:51Z</time>
      </trkpt>
      <trkpt lat="47.60427" lon="4.2737">
        <ele>322.66</ele>
        <time>2020-08-19T07:33:56Z</time>
      </trkpt>
      <trkpt lat="47.60423" lon="4.27368">
        <ele>322.66</ele>
        <time>2020-08-19T07:33:57Z</time>
      </trkpt>
      <trkpt lat="47.60357" lon="4.27324">
        <ele>317.85</ele>
        <time>2020-08-19T07:34:08Z</time>
      </trkpt>
      <trkpt lat="47.60264" lon="4.27219">
        <ele>310.16</ele>
        <time>2020-08-19T07:34:21Z</time>
      </trkpt>
      <trkpt lat="47.60249" lon="4.27204">
        <ele>309.68</ele>
        <time>2020-08-19T07:34:23Z</time>
      </trkpt>
      <trkpt lat="47.60241" lon="4.272">
        <ele>309.2</ele>
        <time>2020-08-19T07:34:24Z</time>
      </trkpt>
      <trkpt lat="47.60233" lon="4.27199">
        <ele>308.72</ele>
        <time>2020-08-19T07:34:25Z</time>
      </trkpt>
      <trkpt lat="47.60222" lon="4.27201">
        <ele>308.72</ele>
        <time>2020-08-19T07:34:26Z</time>
      </trkpt>
      <trkpt lat="47.60217" lon="4.27204">
        <ele>308.72</ele>
        <time>2020-08-19T07:34:27Z</time>
      </trkpt>
      <trkpt lat="47.60211" lon="4.27207">
        <ele>309.2</ele>
        <time>2020-08-19T07:34:28Z</time>
      </trkpt>
      <trkpt lat="47.60205" lon="4.27209">
        <ele>309.2</ele>
        <time>2020-08-19T07:34:29Z</time>
      </trkpt>
      <trkpt lat="47.60153" lon="4.27231">
        <ele>310.64</ele>
        <time>2020-08-19T07:34:42Z</time>
      </trkpt>
      <trkpt lat="47.6009" lon="4.27269">
        <ele>312.57</ele>
        <time>2020-08-19T07:35:03Z</time>
      </trkpt>
      <trkpt lat="47.60025" lon="4.27314">
        <ele>313.53</ele>
        <time>2020-08-19T07:35:25Z</time>
      </trkpt>
      <trkpt lat="47.59964" lon="4.27368">
        <ele>315.45</ele>
        <time>2020-08-19T07:35:47Z</time>
      </trkpt>
      <trkpt lat="47.59899" lon="4.27402">
        <ele>314.97</ele>
        <time>2020-08-19T07:36:06Z</time>
      </trkpt>
      <trkpt lat="47.59843" lon="4.2746">
        <ele>313.53</ele>
        <time>2020-08-19T07:36:25Z</time>
      </trkpt>
      <trkpt lat="47.59798" lon="4.27536">
        <ele>313.05</ele>
        <time>2020-08-19T07:36:45Z</time>
      </trkpt>
      <trkpt lat="47.59764" lon="4.27617">
        <ele>312.09</ele>
        <time>2020-08-19T07:37:03Z</time>
      </trkpt>
      <trkpt lat="47.59753" lon="4.27653">
        <ele>312.09</ele>
        <time>2020-08-19T07:37:09Z</time>
      </trkpt>
      <trkpt lat="47.5975" lon="4.27665">
        <ele>312.09</ele>
        <time>2020-08-19T07:37:11Z</time>
      </trkpt>
      <trkpt lat="47.5974" lon="4.27699">
        <ele>312.57</ele>
        <time>2020-08-19T07:37:17Z</time>
      </trkpt>
      <trkpt lat="47.59738" lon="4.27705">
        <ele>312.57</ele>
        <time>2020-08-19T07:37:18Z</time>
      </trkpt>
      <trkpt lat="47.59722" lon="4.2779">
        <ele>318.33</ele>
        <time>2020-08-19T07:37:33Z</time>
      </trkpt>
      <trkpt lat="47.59721" lon="4.27848">
        <ele>324.58</ele>
        <time>2020-08-19T07:37:48Z</time>
      </trkpt>
      <trkpt lat="47.59722" lon="4.27852">
        <ele>326.02</ele>
        <time>2020-08-19T07:38:01Z</time>
      </trkpt>
      <trkpt lat="47.59721" lon="4.27854">
        <ele>324.58</ele>
        <time>2020-08-19T07:38:25Z</time>
      </trkpt>
      <trkpt lat="47.59722" lon="4.27856">
        <ele>324.1</ele>
        <time>2020-08-19T07:38:55Z</time>
      </trkpt>
      <trkpt lat="47.59722" lon="4.27859">
        <ele>322.18</ele>
        <time>2020-08-19T07:39:24Z</time>
      </trkpt>
      <trkpt lat="47.59721" lon="4.27859">
        <ele>321.22</ele>
        <time>2020-08-19T07:39:53Z</time>
      </trkpt>
      <trkpt lat="47.59722" lon="4.2786">
        <ele>319.78</ele>
        <time>2020-08-19T07:40:16Z</time>
      </trkpt>
      <trkpt lat="47.59722" lon="4.27859">
        <ele>319.3</ele>
        <time>2020-08-19T07:40:43Z</time>
      </trkpt>
      <trkpt lat="47.59725" lon="4.2786">
        <ele>316.89</ele>
        <time>2020-08-19T07:41:07Z</time>
      </trkpt>
      <trkpt lat="47.59722" lon="4.27857">
        <ele>318.81</ele>
        <time>2020-08-19T07:41:38Z</time>
      </trkpt>
      <trkpt lat="47.59723" lon="4.27859">
        <ele>318.33</ele>
        <time>2020-08-19T07:42:05Z</time>
      </trkpt>
      <trkpt lat="47.59722" lon="4.27862">
        <ele>318.81</ele>
        <time>2020-08-19T07:42:18Z</time>
      </trkpt>
      <trkpt lat="47.59723" lon="4.27868">
        <ele>317.85</ele>
        <time>2020-08-19T07:42:47Z</time>
      </trkpt>
      <trkpt lat="47.59725" lon="4.2787">
        <ele>317.85</ele>
        <time>2020-08-19T07:42:58Z</time>
      </trkpt>
      <trkpt lat="47.59725" lon="4.27875">
        <ele>318.81</ele>
        <time>2020-08-19T07:43:02Z</time>
      </trkpt>
      <trkpt lat="47.59722" lon="4.27927">
        <ele>322.18</ele>
        <time>2020-08-19T07:43:18Z</time>
      </trkpt>
      <trkpt lat="47.59714" lon="4.28015">
        <ele>324.58</ele>
        <time>2020-08-19T07:43:37Z</time>
      </trkpt>
      <trkpt lat="47.59701" lon="4.28104">
        <ele>323.14</ele>
        <time>2020-08-19T07:43:51Z</time>
      </trkpt>
      <trkpt lat="47.59687" lon="4.28241">
        <ele>321.22</ele>
        <time>2020-08-19T07:44:13Z</time>
      </trkpt>
      <trkpt lat="47.59678" lon="4.28303">
        <ele>321.7</ele>
        <time>2020-08-19T07:44:29Z</time>
      </trkpt>
      <trkpt lat="47.5966" lon="4.28372">
        <ele>324.1</ele>
        <time>2020-08-19T07:44:53Z</time>
      </trkpt>
      <trkpt lat="47.59646" lon="4.28421">
        <ele>326.99</ele>
        <time>2020-08-19T07:45:11Z</time>
      </trkpt>
      <trkpt lat="47.59632" lon="4.28495">
        <ele>328.43</ele>
        <time>2020-08-19T07:45:35Z</time>
      </trkpt>
      <trkpt lat="47.5962" lon="4.28571">
        <ele>332.27</ele>
        <time>2020-08-19T07:46:02Z</time>
      </trkpt>
      <trkpt lat="47.59614" lon="4.2863">
        <ele>335.16</ele>
        <time>2020-08-19T07:46:24Z</time>
      </trkpt>
      <trkpt lat="47.59615" lon="4.28672">
        <ele>338.04</ele>
        <time>2020-08-19T07:46:42Z</time>
      </trkpt>
      <trkpt lat="47.59615" lon="4.28725">
        <ele>341.41</ele>
        <time>2020-08-19T07:47:04Z</time>
      </trkpt>
      <trkpt lat="47.59611" lon="4.28784">
        <ele>343.33</ele>
        <time>2020-08-19T07:47:28Z</time>
      </trkpt>
      <trkpt lat="47.59608" lon="4.28828">
        <ele>344.77</ele>
        <time>2020-08-19T07:47:44Z</time>
      </trkpt>
      <trkpt lat="47.59612" lon="4.28899">
        <ele>346.69</ele>
        <time>2020-08-19T07:48:08Z</time>
      </trkpt>
      <trkpt lat="47.59615" lon="4.28961">
        <ele>348.62</ele>
        <time>2020-08-19T07:48:31Z</time>
      </trkpt>
      <trkpt lat="47.59603" lon="4.29012">
        <ele>350.54</ele>
        <time>2020-08-19T07:48:53Z</time>
      </trkpt>
      <trkpt lat="47.59592" lon="4.29058">
        <ele>351.98</ele>
        <time>2020-08-19T07:49:10Z</time>
      </trkpt>
      <trkpt lat="47.59581" lon="4.2912">
        <ele>352.94</ele>
        <time>2020-08-19T07:49:28Z</time>
      </trkpt>
      <trkpt lat="47.59568" lon="4.29197">
        <ele>354.38</ele>
        <time>2020-08-19T07:49:50Z</time>
      </trkpt>
      <trkpt lat="47.59558" lon="4.29261">
        <ele>353.9</ele>
        <time>2020-08-19T07:50:07Z</time>
      </trkpt>
      <trkpt lat="47.59543" lon="4.29357">
        <ele>351.98</ele>
        <time>2020-08-19T07:50:24Z</time>
      </trkpt>
      <trkpt lat="47.5954" lon="4.29379">
        <ele>351.5</ele>
        <time>2020-08-19T07:50:27Z</time>
      </trkpt>
      <trkpt lat="47.59538" lon="4.29387">
        <ele>351.02</ele>
        <time>2020-08-19T07:50:28Z</time>
      </trkpt>
      <trkpt lat="47.59535" lon="4.29394">
        <ele>350.54</ele>
        <time>2020-08-19T07:50:29Z</time>
      </trkpt>
      <trkpt lat="47.59531" lon="4.29402">
        <ele>350.06</ele>
        <time>2020-08-19T07:50:30Z</time>
      </trkpt>
      <trkpt lat="47.59527" lon="4.2941">
        <ele>349.1</ele>
        <time>2020-08-19T07:50:31Z</time>
      </trkpt>
      <trkpt lat="47.59522" lon="4.29419">
        <ele>348.62</ele>
        <time>2020-08-19T07:50:32Z</time>
      </trkpt>
      <trkpt lat="47.59487" lon="4.29458">
        <ele>344.77</ele>
        <time>2020-08-19T07:50:37Z</time>
      </trkpt>
      <trkpt lat="47.59472" lon="4.29468">
        <ele>344.29</ele>
        <time>2020-08-19T07:50:39Z</time>
      </trkpt>
      <trkpt lat="47.59465" lon="4.2947">
        <ele>343.81</ele>
        <time>2020-08-19T07:50:40Z</time>
      </trkpt>
      <trkpt lat="47.59407" lon="4.29497">
        <ele>343.33</ele>
        <time>2020-08-19T07:50:51Z</time>
      </trkpt>
      <trkpt lat="47.5932" lon="4.29528">
        <ele>341.41</ele>
        <time>2020-08-19T07:51:10Z</time>
      </trkpt>
      <trkpt lat="47.59251" lon="4.29563">
        <ele>339.48</ele>
        <time>2020-08-19T07:51:24Z</time>
      </trkpt>
      <trkpt lat="47.59226" lon="4.29602">
        <ele>339.96</ele>
        <time>2020-08-19T07:51:39Z</time>
      </trkpt>
      <trkpt lat="47.59216" lon="4.29618">
        <ele>339.96</ele>
        <time>2020-08-19T07:51:55Z</time>
      </trkpt>
      <trkpt lat="47.59199" lon="4.29645">
        <ele>340.92</ele>
        <time>2020-08-19T07:52:08Z</time>
      </trkpt>
      <trkpt lat="47.5916" lon="4.29698">
        <ele>340.92</ele>
        <time>2020-08-19T07:52:25Z</time>
      </trkpt>
      <trkpt lat="47.59123" lon="4.29752">
        <ele>339.96</ele>
        <time>2020-08-19T07:52:40Z</time>
      </trkpt>
      <trkpt lat="47.59074" lon="4.29822">
        <ele>340.44</ele>
        <time>2020-08-19T07:52:59Z</time>
      </trkpt>
      <trkpt lat="47.59037" lon="4.29874">
        <ele>341.89</ele>
        <time>2020-08-19T07:53:15Z</time>
      </trkpt>
      <trkpt lat="47.58999" lon="4.29927">
        <ele>344.29</ele>
        <time>2020-08-19T07:53:36Z</time>
      </trkpt>
      <trkpt lat="47.58956" lon="4.29974">
        <ele>344.77</ele>
        <time>2020-08-19T07:53:57Z</time>
      </trkpt>
      <trkpt lat="47.5891" lon="4.30027">
        <ele>339.48</ele>
        <time>2020-08-19T07:54:10Z</time>
      </trkpt>
      <trkpt lat="47.58905" lon="4.30032">
        <ele>338.52</ele>
        <time>2020-08-19T07:54:11Z</time>
      </trkpt>
      <trkpt lat="47.58876" lon="4.30061">
        <ele>335.16</ele>
        <time>2020-08-19T07:54:16Z</time>
      </trkpt>
      <trkpt lat="47.5885" lon="4.3008">
        <ele>334.2</ele>
        <time>2020-08-19T07:54:24Z</time>
      </trkpt>
      <trkpt lat="47.58831" lon="4.30091">
        <ele>339</ele>
        <time>2020-08-19T07:54:41Z</time>
      </trkpt>
      <trkpt lat="47.58804" lon="4.30104">
        <ele>344.29</ele>
        <time>2020-08-19T07:55:04Z</time>
      </trkpt>
      <trkpt lat="47.58779" lon="4.30116">
        <ele>347.65</ele>
        <time>2020-08-19T07:55:25Z</time>
      </trkpt>
      <trkpt lat="47.58758" lon="4.30127">
        <ele>350.54</ele>
        <time>2020-08-19T07:55:44Z</time>
      </trkpt>
      <trkpt lat="47.58738" lon="4.30138">
        <ele>353.9</ele>
        <time>2020-08-19T07:56:03Z</time>
      </trkpt>
      <trkpt lat="47.58726" lon="4.30145">
        <ele>354.86</ele>
        <time>2020-08-19T07:56:13Z</time>
      </trkpt>
      <trkpt lat="47.58725" lon="4.30146">
        <ele>354.86</ele>
        <time>2020-08-19T07:56:14Z</time>
      </trkpt>
      <trkpt lat="47.58724" lon="4.30146">
        <ele>355.34</ele>
        <time>2020-08-19T07:56:15Z</time>
      </trkpt>
      <trkpt lat="47.58723" lon="4.30146">
        <ele>355.34</ele>
        <time>2020-08-19T07:56:16Z</time>
      </trkpt>
      <trkpt lat="47.58721" lon="4.30146">
        <ele>355.34</ele>
        <time>2020-08-19T07:56:17Z</time>
      </trkpt>
      <trkpt lat="47.587" lon="4.30156">
        <ele>357.75</ele>
        <time>2020-08-19T07:56:36Z</time>
      </trkpt>
      <trkpt lat="47.58674" lon="4.30168">
        <ele>360.15</ele>
        <time>2020-08-19T07:56:57Z</time>
      </trkpt>
      <trkpt lat="47.58646" lon="4.30182">
        <ele>362.07</ele>
        <time>2020-08-19T07:57:20Z</time>
      </trkpt>
      <trkpt lat="47.58628" lon="4.30153">
        <ele>365.92</ele>
        <time>2020-08-19T07:57:35Z</time>
      </trkpt>
      <trkpt lat="47.58596" lon="4.3009">
        <ele>367.36</ele>
        <time>2020-08-19T07:57:54Z</time>
      </trkpt>
      <trkpt lat="47.58559" lon="4.30014">
        <ele>367.36</ele>
        <time>2020-08-19T07:58:14Z</time>
      </trkpt>
      <trkpt lat="47.58522" lon="4.2995">
        <ele>367.84</ele>
        <time>2020-08-19T07:58:31Z</time>
      </trkpt>
      <trkpt lat="47.58489" lon="4.29872">
        <ele>367.36</ele>
        <time>2020-08-19T07:58:49Z</time>
      </trkpt>
      <trkpt lat="47.58482" lon="4.29825">
        <ele>365.92</ele>
        <time>2020-08-19T07:58:57Z</time>
      </trkpt>
      <trkpt lat="47.58482" lon="4.29818">
        <ele>365.44</ele>
        <time>2020-08-19T07:58:58Z</time>
      </trkpt>
      <trkpt lat="47.58486" lon="4.29693">
        <ele>361.11</ele>
        <time>2020-08-19T07:59:12Z</time>
      </trkpt>
      <trkpt lat="47.58501" lon="4.29549">
        <ele>351.98</ele>
        <time>2020-08-19T07:59:26Z</time>
      </trkpt>
      <trkpt lat="47.58501" lon="4.29537">
        <ele>351.02</ele>
        <time>2020-08-19T07:59:27Z</time>
      </trkpt>
      <trkpt lat="47.585" lon="4.29524">
        <ele>350.54</ele>
        <time>2020-08-19T07:59:28Z</time>
      </trkpt>
      <trkpt lat="47.58497" lon="4.29512">
        <ele>350.06</ele>
        <time>2020-08-19T07:59:29Z</time>
      </trkpt>
      <trkpt lat="47.58493" lon="4.295">
        <ele>349.58</ele>
        <time>2020-08-19T07:59:30Z</time>
      </trkpt>
      <trkpt lat="47.58489" lon="4.29487">
        <ele>349.1</ele>
        <time>2020-08-19T07:59:31Z</time>
      </trkpt>
      <trkpt lat="47.58484" lon="4.29475">
        <ele>348.62</ele>
        <time>2020-08-19T07:59:32Z</time>
      </trkpt>
      <trkpt lat="47.58478" lon="4.29463">
        <ele>348.13</ele>
        <time>2020-08-19T07:59:33Z</time>
      </trkpt>
      <trkpt lat="47.58458" lon="4.2943">
        <ele>346.21</ele>
        <time>2020-08-19T07:59:36Z</time>
      </trkpt>
      <trkpt lat="47.58451" lon="4.29421">
        <ele>345.73</ele>
        <time>2020-08-19T07:59:37Z</time>
      </trkpt>
      <trkpt lat="47.58443" lon="4.29415">
        <ele>344.77</ele>
        <time>2020-08-19T07:59:38Z</time>
      </trkpt>
      <trkpt lat="47.58436" lon="4.2941">
        <ele>344.29</ele>
        <time>2020-08-19T07:59:39Z</time>
      </trkpt>
      <trkpt lat="47.58428" lon="4.29408">
        <ele>343.81</ele>
        <time>2020-08-19T07:59:40Z</time>
      </trkpt>
      <trkpt lat="47.5842" lon="4.2941">
        <ele>343.33</ele>
        <time>2020-08-19T07:59:41Z</time>
      </trkpt>
      <trkpt lat="47.58413" lon="4.29415">
        <ele>342.37</ele>
        <time>2020-08-19T07:59:42Z</time>
      </trkpt>
      <trkpt lat="47.58406" lon="4.29423">
        <ele>341.89</ele>
        <time>2020-08-19T07:59:43Z</time>
      </trkpt>
      <trkpt lat="47.58399" lon="4.29432">
        <ele>340.92</ele>
        <time>2020-08-19T07:59:44Z</time>
      </trkpt>
      <trkpt lat="47.58388" lon="4.29447">
        <ele>339.48</ele>
        <time>2020-08-19T07:59:46Z</time>
      </trkpt>
      <trkpt lat="47.58383" lon="4.2945">
        <ele>338.52</ele>
        <time>2020-08-19T07:59:47Z</time>
      </trkpt>
      <trkpt lat="47.58378" lon="4.29451">
        <ele>338.04</ele>
        <time>2020-08-19T07:59:48Z</time>
      </trkpt>
      <trkpt lat="47.58374" lon="4.29447">
        <ele>337.56</ele>
        <time>2020-08-19T07:59:49Z</time>
      </trkpt>
      <trkpt lat="47.5837" lon="4.29442">
        <ele>337.56</ele>
        <time>2020-08-19T07:59:50Z</time>
      </trkpt>
      <trkpt lat="47.58369" lon="4.29434">
        <ele>337.56</ele>
        <time>2020-08-19T07:59:51Z</time>
      </trkpt>
      <trkpt lat="47.5837" lon="4.29426">
        <ele>337.56</ele>
        <time>2020-08-19T07:59:52Z</time>
      </trkpt>
      <trkpt lat="47.58372" lon="4.29419">
        <ele>337.56</ele>
        <time>2020-08-19T07:59:53Z</time>
      </trkpt>
      <trkpt lat="47.58376" lon="4.29412">
        <ele>337.56</ele>
        <time>2020-08-19T07:59:54Z</time>
      </trkpt>
      <trkpt lat="47.58381" lon="4.29405">
        <ele>337.56</ele>
        <time>2020-08-19T07:59:55Z</time>
      </trkpt>
      <trkpt lat="47.58443" lon="4.29297">
        <ele>338.52</ele>
        <time>2020-08-19T08:00:06Z</time>
      </trkpt>
      <trkpt lat="47.58476" lon="4.29253">
        <ele>339</ele>
        <time>2020-08-19T08:00:11Z</time>
      </trkpt>
      <trkpt lat="47.5849" lon="4.29238">
        <ele>339.48</ele>
        <time>2020-08-19T08:00:14Z</time>
      </trkpt>
      <trkpt lat="47.58492" lon="4.29233">
        <ele>339.96</ele>
        <time>2020-08-19T08:00:15Z</time>
      </trkpt>
      <trkpt lat="47.58491" lon="4.29229">
        <ele>340.44</ele>
        <time>2020-08-19T08:00:16Z</time>
      </trkpt>
      <trkpt lat="47.58489" lon="4.29226">
        <ele>340.92</ele>
        <time>2020-08-19T08:00:17Z</time>
      </trkpt>
      <trkpt lat="47.58487" lon="4.29224">
        <ele>341.41</ele>
        <time>2020-08-19T08:00:18Z</time>
      </trkpt>
      <trkpt lat="47.58485" lon="4.29224">
        <ele>341.41</ele>
        <time>2020-08-19T08:00:19Z</time>
      </trkpt>
      <trkpt lat="47.58483" lon="4.29224">
        <ele>341.41</ele>
        <time>2020-08-19T08:00:20Z</time>
      </trkpt>
      <trkpt lat="47.5848" lon="4.29223">
        <ele>341.41</ele>
        <time>2020-08-19T08:00:22Z</time>
      </trkpt>
      <trkpt lat="47.58464" lon="4.29217">
        <ele>344.29</ele>
        <time>2020-08-19T08:00:36Z</time>
      </trkpt>
      <trkpt lat="47.5846" lon="4.29215">
        <ele>345.73</ele>
        <time>2020-08-19T08:00:40Z</time>
      </trkpt>
      <trkpt lat="47.5844" lon="4.29193">
        <ele>353.9</ele>
        <time>2020-08-19T08:00:59Z</time>
      </trkpt>
      <trkpt lat="47.58434" lon="4.29186">
        <ele>354.38</ele>
        <time>2020-08-19T08:01:05Z</time>
      </trkpt>
      <trkpt lat="47.58433" lon="4.29185">
        <ele>354.38</ele>
        <time>2020-08-19T08:01:06Z</time>
      </trkpt>
      <trkpt lat="47.58419" lon="4.29163">
        <ele>356.79</ele>
        <time>2020-08-19T08:01:23Z</time>
      </trkpt>
      <trkpt lat="47.58404" lon="4.29133">
        <ele>356.79</ele>
        <time>2020-08-19T08:01:42Z</time>
      </trkpt>
      <trkpt lat="47.58392" lon="4.29112">
        <ele>359.19</ele>
        <time>2020-08-19T08:02:00Z</time>
      </trkpt>
      <trkpt lat="47.58379" lon="4.29089">
        <ele>364</ele>
        <time>2020-08-19T08:02:18Z</time>
      </trkpt>
      <trkpt lat="47.58365" lon="4.29074">
        <ele>367.36</ele>
        <time>2020-08-19T08:02:34Z</time>
      </trkpt>
      <trkpt lat="47.5835" lon="4.29053">
        <ele>373.13</ele>
        <time>2020-08-19T08:02:51Z</time>
      </trkpt>
      <trkpt lat="47.58334" lon="4.29041">
        <ele>379.38</ele>
        <time>2020-08-19T08:03:08Z</time>
      </trkpt>
      <trkpt lat="47.5833" lon="4.29038">
        <ele>380.34</ele>
        <time>2020-08-19T08:03:11Z</time>
      </trkpt>
      <trkpt lat="47.58314" lon="4.29026">
        <ele>383.7</ele>
        <time>2020-08-19T08:03:26Z</time>
      </trkpt>
      <trkpt lat="47.58296" lon="4.29015">
        <ele>385.63</ele>
        <time>2020-08-19T08:03:42Z</time>
      </trkpt>
      <trkpt lat="47.5828" lon="4.29006">
        <ele>386.11</ele>
        <time>2020-08-19T08:03:59Z</time>
      </trkpt>
      <trkpt lat="47.58263" lon="4.29003">
        <ele>388.51</ele>
        <time>2020-08-19T08:04:16Z</time>
      </trkpt>
      <trkpt lat="47.58249" lon="4.29008">
        <ele>388.99</ele>
        <time>2020-08-19T08:04:32Z</time>
      </trkpt>
      <trkpt lat="47.58228" lon="4.29026">
        <ele>388.03</ele>
        <time>2020-08-19T08:04:52Z</time>
      </trkpt>
      <trkpt lat="47.58209" lon="4.29033">
        <ele>385.63</ele>
        <time>2020-08-19T08:05:06Z</time>
      </trkpt>
      <trkpt lat="47.58207" lon="4.29033">
        <ele>385.15</ele>
        <time>2020-08-19T08:05:07Z</time>
      </trkpt>
      <trkpt lat="47.58187" lon="4.29041">
        <ele>380.34</ele>
        <time>2020-08-19T08:05:21Z</time>
      </trkpt>
      <trkpt lat="47.58161" lon="4.29048">
        <ele>375.05</ele>
        <time>2020-08-19T08:05:39Z</time>
      </trkpt>
      <trkpt lat="47.58142" lon="4.29044">
        <ele>374.57</ele>
        <time>2020-08-19T08:05:55Z</time>
      </trkpt>
      <trkpt lat="47.58135" lon="4.29029">
        <ele>375.53</ele>
        <time>2020-08-19T08:06:07Z</time>
      </trkpt>
      <trkpt lat="47.58132" lon="4.29005">
        <ele>380.82</ele>
        <time>2020-08-19T08:06:24Z</time>
      </trkpt>
      <trkpt lat="47.58128" lon="4.2898">
        <ele>385.15</ele>
        <time>2020-08-19T08:06:40Z</time>
      </trkpt>
      <trkpt lat="47.58122" lon="4.28953">
        <ele>387.55</ele>
        <time>2020-08-19T08:06:57Z</time>
      </trkpt>
      <trkpt lat="47.58127" lon="4.28916">
        <ele>388.51</ele>
        <time>2020-08-19T08:07:17Z</time>
      </trkpt>
      <trkpt lat="47.58123" lon="4.28886">
        <ele>388.99</ele>
        <time>2020-08-19T08:07:35Z</time>
      </trkpt>
      <trkpt lat="47.58122" lon="4.28886">
        <ele>388.99</ele>
        <time>2020-08-19T08:07:36Z</time>
      </trkpt>
      <trkpt lat="47.58092" lon="4.28897">
        <ele>388.03</ele>
        <time>2020-08-19T08:08:00Z</time>
      </trkpt>
      <trkpt lat="47.58057" lon="4.28914">
        <ele>388.03</ele>
        <time>2020-08-19T08:08:24Z</time>
      </trkpt>
      <trkpt lat="47.58021" lon="4.28932">
        <ele>388.03</ele>
        <time>2020-08-19T08:08:47Z</time>
      </trkpt>
      <trkpt lat="47.57987" lon="4.28949">
        <ele>389.47</ele>
        <time>2020-08-19T08:09:10Z</time>
      </trkpt>
      <trkpt lat="47.57952" lon="4.28967">
        <ele>391.39</ele>
        <time>2020-08-19T08:09:35Z</time>
      </trkpt>
      <trkpt lat="47.57919" lon="4.28983">
        <ele>393.32</ele>
        <time>2020-08-19T08:10:01Z</time>
      </trkpt>
      <trkpt lat="47.57888" lon="4.28999">
        <ele>396.68</ele>
        <time>2020-08-19T08:10:26Z</time>
      </trkpt>
      <trkpt lat="47.57862" lon="4.29023">
        <ele>399.57</ele>
        <time>2020-08-19T08:10:49Z</time>
      </trkpt>
      <trkpt lat="47.57842" lon="4.29047">
        <ele>402.93</ele>
        <time>2020-08-19T08:11:09Z</time>
      </trkpt>
      <trkpt lat="47.57821" lon="4.29069">
        <ele>405.81</ele>
        <time>2020-08-19T08:11:29Z</time>
      </trkpt>
      <trkpt lat="47.57799" lon="4.29093">
        <ele>408.7</ele>
        <time>2020-08-19T08:11:50Z</time>
      </trkpt>
      <trkpt lat="47.57777" lon="4.29118">
        <ele>412.06</ele>
        <time>2020-08-19T08:12:12Z</time>
      </trkpt>
      <trkpt lat="47.57752" lon="4.29148">
        <ele>413.98</ele>
        <time>2020-08-19T08:12:35Z</time>
      </trkpt>
      <trkpt lat="47.57726" lon="4.29178">
        <ele>418.31</ele>
        <time>2020-08-19T08:13:00Z</time>
      </trkpt>
      <trkpt lat="47.57711" lon="4.2917">
        <ele>422.16</ele>
        <time>2020-08-19T08:13:11Z</time>
      </trkpt>
      <trkpt lat="47.57711" lon="4.29168">
        <ele>422.64</ele>
        <time>2020-08-19T08:13:12Z</time>
      </trkpt>
      <trkpt lat="47.5771" lon="4.29166">
        <ele>423.12</ele>
        <time>2020-08-19T08:13:13Z</time>
      </trkpt>
      <trkpt lat="47.57709" lon="4.29163">
        <ele>423.12</ele>
        <time>2020-08-19T08:13:14Z</time>
      </trkpt>
      <trkpt lat="47.57708" lon="4.29161">
        <ele>423.6</ele>
        <time>2020-08-19T08:13:15Z</time>
      </trkpt>
      <trkpt lat="47.57707" lon="4.29158">
        <ele>423.6</ele>
        <time>2020-08-19T08:13:16Z</time>
      </trkpt>
      <trkpt lat="47.57706" lon="4.29155">
        <ele>424.08</ele>
        <time>2020-08-19T08:13:17Z</time>
      </trkpt>
      <trkpt lat="47.57705" lon="4.29152">
        <ele>424.08</ele>
        <time>2020-08-19T08:13:18Z</time>
      </trkpt>
      <trkpt lat="47.57684" lon="4.29082">
        <ele>427.44</ele>
        <time>2020-08-19T08:13:38Z</time>
      </trkpt>
      <trkpt lat="47.57683" lon="4.29081">
        <ele>427.44</ele>
        <time>2020-08-19T08:13:50Z</time>
      </trkpt>
      <trkpt lat="47.57685" lon="4.29078">
        <ele>428.4</ele>
        <time>2020-08-19T08:14:23Z</time>
      </trkpt>
      <trkpt lat="47.57682" lon="4.29077">
        <ele>426.96</ele>
        <time>2020-08-19T08:14:39Z</time>
      </trkpt>
      <trkpt lat="47.57671" lon="4.2904">
        <ele>428.89</ele>
        <time>2020-08-19T08:14:52Z</time>
      </trkpt>
      <trkpt lat="47.5765" lon="4.28977">
        <ele>434.65</ele>
        <time>2020-08-19T08:15:08Z</time>
      </trkpt>
      <trkpt lat="47.57613" lon="4.28903">
        <ele>439.94</ele>
        <time>2020-08-19T08:15:24Z</time>
      </trkpt>
      <trkpt lat="47.57598" lon="4.28882">
        <ele>440.9</ele>
        <time>2020-08-19T08:15:29Z</time>
      </trkpt>
      <trkpt lat="47.57545" lon="4.28842">
        <ele>438.02</ele>
        <time>2020-08-19T08:15:44Z</time>
      </trkpt>
      <trkpt lat="47.57507" lon="4.28849">
        <ele>430.33</ele>
        <time>2020-08-19T08:15:56Z</time>
      </trkpt>
      <trkpt lat="47.57506" lon="4.28852">
        <ele>429.85</ele>
        <time>2020-08-19T08:15:57Z</time>
      </trkpt>
      <trkpt lat="47.57506" lon="4.28855">
        <ele>429.37</ele>
        <time>2020-08-19T08:15:58Z</time>
      </trkpt>
      <trkpt lat="47.57506" lon="4.28859">
        <ele>428.89</ele>
        <time>2020-08-19T08:15:59Z</time>
      </trkpt>
      <trkpt lat="47.57507" lon="4.28863">
        <ele>428.89</ele>
        <time>2020-08-19T08:16:00Z</time>
      </trkpt>
      <trkpt lat="47.5751" lon="4.28907">
        <ele>430.33</ele>
        <time>2020-08-19T08:16:13Z</time>
      </trkpt>
      <trkpt lat="47.57511" lon="4.28913">
        <ele>431.29</ele>
        <time>2020-08-19T08:16:15Z</time>
      </trkpt>
      <trkpt lat="47.57509" lon="4.28916">
        <ele>431.77</ele>
        <time>2020-08-19T08:16:16Z</time>
      </trkpt>
      <trkpt lat="47.57508" lon="4.28919">
        <ele>432.25</ele>
        <time>2020-08-19T08:16:17Z</time>
      </trkpt>
      <trkpt lat="47.57506" lon="4.28921">
        <ele>432.73</ele>
        <time>2020-08-19T08:16:18Z</time>
      </trkpt>
      <trkpt lat="47.57502" lon="4.28923">
        <ele>433.69</ele>
        <time>2020-08-19T08:16:20Z</time>
      </trkpt>
      <trkpt lat="47.575" lon="4.28924">
        <ele>434.17</ele>
        <time>2020-08-19T08:16:21Z</time>
      </trkpt>
      <trkpt lat="47.57498" lon="4.28925">
        <ele>434.65</ele>
        <time>2020-08-19T08:16:22Z</time>
      </trkpt>
      <trkpt lat="47.57496" lon="4.28926">
        <ele>435.13</ele>
        <time>2020-08-19T08:16:23Z</time>
      </trkpt>
      <trkpt lat="47.57458" lon="4.2894">
        <ele>439.46</ele>
        <time>2020-08-19T08:16:38Z</time>
      </trkpt>
      <trkpt lat="47.5743" lon="4.28958">
        <ele>440.9</ele>
        <time>2020-08-19T08:16:50Z</time>
      </trkpt>
      <trkpt lat="47.57406" lon="4.28996">
        <ele>443.31</ele>
        <time>2020-08-19T08:17:03Z</time>
      </trkpt>
      <trkpt lat="47.57382" lon="4.29057">
        <ele>444.75</ele>
        <time>2020-08-19T08:17:18Z</time>
      </trkpt>
      <trkpt lat="47.57367" lon="4.29111">
        <ele>442.82</ele>
        <time>2020-08-19T08:17:32Z</time>
      </trkpt>
      <trkpt lat="47.57344" lon="4.29148">
        <ele>449.55</ele>
        <time>2020-08-19T08:17:48Z</time>
      </trkpt>
      <trkpt lat="47.57318" lon="4.29173">
        <ele>454.84</ele>
        <time>2020-08-19T08:18:03Z</time>
      </trkpt>
      <trkpt lat="47.57285" lon="4.29187">
        <ele>455.32</ele>
        <time>2020-08-19T08:18:18Z</time>
      </trkpt>
      <trkpt lat="47.57253" lon="4.29189">
        <ele>453.88</ele>
        <time>2020-08-19T08:18:32Z</time>
      </trkpt>
      <trkpt lat="47.57219" lon="4.29189">
        <ele>452.44</ele>
        <time>2020-08-19T08:18:46Z</time>
      </trkpt>
      <trkpt lat="47.57213" lon="4.2919">
        <ele>452.44</ele>
        <time>2020-08-19T08:18:50Z</time>
      </trkpt>
      <trkpt lat="47.57182" lon="4.29206">
        <ele>454.36</ele>
        <time>2020-08-19T08:19:06Z</time>
      </trkpt>
      <trkpt lat="47.57149" lon="4.2924">
        <ele>456.28</ele>
        <time>2020-08-19T08:19:20Z</time>
      </trkpt>
      <trkpt lat="47.57117" lon="4.29292">
        <ele>457.72</ele>
        <time>2020-08-19T08:19:33Z</time>
      </trkpt>
      <trkpt lat="47.57089" lon="4.29319">
        <ele>458.69</ele>
        <time>2020-08-19T08:19:40Z</time>
      </trkpt>
      <trkpt lat="47.56994" lon="4.29381">
        <ele>448.59</ele>
        <time>2020-08-19T08:19:58Z</time>
      </trkpt>
      <trkpt lat="47.56946" lon="4.29414">
        <ele>443.31</ele>
        <time>2020-08-19T08:20:07Z</time>
      </trkpt>
      <trkpt lat="47.56921" lon="4.29457">
        <ele>439.46</ele>
        <time>2020-08-19T08:20:13Z</time>
      </trkpt>
      <trkpt lat="47.56901" lon="4.29521">
        <ele>435.13</ele>
        <time>2020-08-19T08:20:20Z</time>
      </trkpt>
      <trkpt lat="47.56888" lon="4.29543">
        <ele>433.21</ele>
        <time>2020-08-19T08:20:23Z</time>
      </trkpt>
      <trkpt lat="47.56857" lon="4.2959">
        <ele>430.81</ele>
        <time>2020-08-19T08:20:31Z</time>
      </trkpt>
      <trkpt lat="47.56853" lon="4.29592">
        <ele>430.81</ele>
        <time>2020-08-19T08:20:32Z</time>
      </trkpt>
      <trkpt lat="47.56844" lon="4.29597">
        <ele>430.33</ele>
        <time>2020-08-19T08:20:34Z</time>
      </trkpt>
      <trkpt lat="47.56835" lon="4.29608">
        <ele>431.29</ele>
        <time>2020-08-19T08:20:39Z</time>
      </trkpt>
      <trkpt lat="47.56799" lon="4.29638">
        <ele>431.29</ele>
        <time>2020-08-19T08:20:52Z</time>
      </trkpt>
      <trkpt lat="47.56765" lon="4.29651">
        <ele>433.21</ele>
        <time>2020-08-19T08:21:05Z</time>
      </trkpt>
      <trkpt lat="47.56735" lon="4.29684">
        <ele>438.98</ele>
        <time>2020-08-19T08:21:20Z</time>
      </trkpt>
      <trkpt lat="47.56707" lon="4.2972">
        <ele>443.79</ele>
        <time>2020-08-19T08:21:34Z</time>
      </trkpt>
      <trkpt lat="47.56681" lon="4.29757">
        <ele>452.92</ele>
        <time>2020-08-19T08:21:49Z</time>
      </trkpt>
      <trkpt lat="47.56643" lon="4.29801">
        <ele>458.21</ele>
        <time>2020-08-19T08:22:05Z</time>
      </trkpt>
      <trkpt lat="47.56596" lon="4.29846">
        <ele>452.92</ele>
        <time>2020-08-19T08:22:20Z</time>
      </trkpt>
      <trkpt lat="47.56568" lon="4.29869">
        <ele>451</ele>
        <time>2020-08-19T08:22:28Z</time>
      </trkpt>
      <trkpt lat="47.56561" lon="4.29875">
        <ele>450.52</ele>
        <time>2020-08-19T08:22:30Z</time>
      </trkpt>
      <trkpt lat="47.56538" lon="4.29882">
        <ele>449.55</ele>
        <time>2020-08-19T08:22:35Z</time>
      </trkpt>
      <trkpt lat="47.56464" lon="4.29892">
        <ele>442.34</ele>
        <time>2020-08-19T08:22:50Z</time>
      </trkpt>
      <trkpt lat="47.56448" lon="4.29888">
        <ele>440.9</ele>
        <time>2020-08-19T08:22:53Z</time>
      </trkpt>
      <trkpt lat="47.5642" lon="4.29891">
        <ele>438.98</ele>
        <time>2020-08-19T08:22:59Z</time>
      </trkpt>
      <trkpt lat="47.56412" lon="4.29896">
        <ele>438.5</ele>
        <time>2020-08-19T08:23:01Z</time>
      </trkpt>
      <trkpt lat="47.56384" lon="4.29904">
        <ele>436.58</ele>
        <time>2020-08-19T08:23:06Z</time>
      </trkpt>
      <trkpt lat="47.56344" lon="4.29872">
        <ele>434.17</ele>
        <time>2020-08-19T08:23:14Z</time>
      </trkpt>
      <trkpt lat="47.56313" lon="4.29824">
        <ele>435.13</ele>
        <time>2020-08-19T08:23:27Z</time>
      </trkpt>
      <trkpt lat="47.56255" lon="4.29814">
        <ele>430.81</ele>
        <time>2020-08-19T08:23:38Z</time>
      </trkpt>
      <trkpt lat="47.56143" lon="4.29795">
        <ele>417.35</ele>
        <time>2020-08-19T08:23:53Z</time>
      </trkpt>
      <trkpt lat="47.5601" lon="4.29765">
        <ele>396.68</ele>
        <time>2020-08-19T08:24:11Z</time>
      </trkpt>
      <trkpt lat="47.55951" lon="4.29733">
        <ele>388.99</ele>
        <time>2020-08-19T08:24:21Z</time>
      </trkpt>
      <trkpt lat="47.55893" lon="4.29732">
        <ele>382.74</ele>
        <time>2020-08-19T08:24:34Z</time>
      </trkpt>
      <trkpt lat="47.55829" lon="4.29727">
        <ele>375.05</ele>
        <time>2020-08-19T08:24:48Z</time>
      </trkpt>
      <trkpt lat="47.55807" lon="4.29713">
        <ele>370.73</ele>
        <time>2020-08-19T08:24:56Z</time>
      </trkpt>
      <trkpt lat="47.55805" lon="4.29707">
        <ele>370.24</ele>
        <time>2020-08-19T08:24:57Z</time>
      </trkpt>
      <trkpt lat="47.55803" lon="4.297">
        <ele>369.76</ele>
        <time>2020-08-19T08:24:58Z</time>
      </trkpt>
      <trkpt lat="47.55801" lon="4.29692">
        <ele>368.8</ele>
        <time>2020-08-19T08:24:59Z</time>
      </trkpt>
      <trkpt lat="47.55799" lon="4.29683">
        <ele>368.32</ele>
        <time>2020-08-19T08:25:00Z</time>
      </trkpt>
      <trkpt lat="47.55791" lon="4.29653">
        <ele>366.4</ele>
        <time>2020-08-19T08:25:03Z</time>
      </trkpt>
      <trkpt lat="47.55761" lon="4.29564">
        <ele>360.63</ele>
        <time>2020-08-19T08:25:10Z</time>
      </trkpt>
      <trkpt lat="47.55716" lon="4.29471">
        <ele>353.9</ele>
        <time>2020-08-19T08:25:18Z</time>
      </trkpt>
      <trkpt lat="47.55713" lon="4.29456">
        <ele>352.94</ele>
        <time>2020-08-19T08:25:19Z</time>
      </trkpt>
      <trkpt lat="47.55711" lon="4.2944">
        <ele>352.46</ele>
        <time>2020-08-19T08:25:20Z</time>
      </trkpt>
      <trkpt lat="47.55711" lon="4.29425">
        <ele>351.98</ele>
        <time>2020-08-19T08:25:21Z</time>
      </trkpt>
      <trkpt lat="47.55711" lon="4.2941">
        <ele>351.5</ele>
        <time>2020-08-19T08:25:22Z</time>
      </trkpt>
      <trkpt lat="47.55702" lon="4.2924">
        <ele>343.81</ele>
        <time>2020-08-19T08:25:34Z</time>
      </trkpt>
      <trkpt lat="47.55687" lon="4.29125">
        <ele>336.6</ele>
        <time>2020-08-19T08:25:41Z</time>
      </trkpt>
      <trkpt lat="47.55687" lon="4.29108">
        <ele>335.64</ele>
        <time>2020-08-19T08:25:42Z</time>
      </trkpt>
      <trkpt lat="47.55689" lon="4.2909">
        <ele>334.68</ele>
        <time>2020-08-19T08:25:43Z</time>
      </trkpt>
      <trkpt lat="47.55698" lon="4.29017">
        <ele>330.35</ele>
        <time>2020-08-19T08:25:47Z</time>
      </trkpt>
      <trkpt lat="47.55702" lon="4.29">
        <ele>328.91</ele>
        <time>2020-08-19T08:25:48Z</time>
      </trkpt>
      <trkpt lat="47.55708" lon="4.28983">
        <ele>327.95</ele>
        <time>2020-08-19T08:25:49Z</time>
      </trkpt>
      <trkpt lat="47.55747" lon="4.28861">
        <ele>319.3</ele>
        <time>2020-08-19T08:25:56Z</time>
      </trkpt>
      <trkpt lat="47.55754" lon="4.28845">
        <ele>318.33</ele>
        <time>2020-08-19T08:25:57Z</time>
      </trkpt>
      <trkpt lat="47.55762" lon="4.2883">
        <ele>317.37</ele>
        <time>2020-08-19T08:25:58Z</time>
      </trkpt>
      <trkpt lat="47.55771" lon="4.28817">
        <ele>316.41</ele>
        <time>2020-08-19T08:25:59Z</time>
      </trkpt>
      <trkpt lat="47.5578" lon="4.28804">
        <ele>315.93</ele>
        <time>2020-08-19T08:26:00Z</time>
      </trkpt>
      <trkpt lat="47.55801" lon="4.28772">
        <ele>314.01</ele>
        <time>2020-08-19T08:26:03Z</time>
      </trkpt>
      <trkpt lat="47.55805" lon="4.28762">
        <ele>313.05</ele>
        <time>2020-08-19T08:26:04Z</time>
      </trkpt>
      <trkpt lat="47.55808" lon="4.28751">
        <ele>312.09</ele>
        <time>2020-08-19T08:26:05Z</time>
      </trkpt>
      <trkpt lat="47.5581" lon="4.2874">
        <ele>310.64</ele>
        <time>2020-08-19T08:26:06Z</time>
      </trkpt>
      <trkpt lat="47.55812" lon="4.28729">
        <ele>309.68</ele>
        <time>2020-08-19T08:26:07Z</time>
      </trkpt>
      <trkpt lat="47.55814" lon="4.28716">
        <ele>308.72</ele>
        <time>2020-08-19T08:26:08Z</time>
      </trkpt>
      <trkpt lat="47.55823" lon="4.28646">
        <ele>300.07</ele>
        <time>2020-08-19T08:26:16Z</time>
      </trkpt>
      <trkpt lat="47.5582" lon="4.28643">
        <ele>299.59</ele>
        <time>2020-08-19T08:26:17Z</time>
      </trkpt>
      <trkpt lat="47.55816" lon="4.28642">
        <ele>298.63</ele>
        <time>2020-08-19T08:26:18Z</time>
      </trkpt>
      <trkpt lat="47.55812" lon="4.28644">
        <ele>298.15</ele>
        <time>2020-08-19T08:26:19Z</time>
      </trkpt>
      <trkpt lat="47.55808" lon="4.28646">
        <ele>298.15</ele>
        <time>2020-08-19T08:26:20Z</time>
      </trkpt>
      <trkpt lat="47.55747" lon="4.28695">
        <ele>297.67</ele>
        <time>2020-08-19T08:26:36Z</time>
      </trkpt>
      <trkpt lat="47.55691" lon="4.28763">
        <ele>298.63</ele>
        <time>2020-08-19T08:26:54Z</time>
      </trkpt>
      <trkpt lat="47.55624" lon="4.28847">
        <ele>300.07</ele>
        <time>2020-08-19T08:27:16Z</time>
      </trkpt>
      <trkpt lat="47.55573" lon="4.28925">
        <ele>301.51</ele>
        <time>2020-08-19T08:27:35Z</time>
      </trkpt>
      <trkpt lat="47.5553" lon="4.29029">
        <ele>299.59</ele>
        <time>2020-08-19T08:27:55Z</time>
      </trkpt>
      <trkpt lat="47.55487" lon="4.29164">
        <ele>295.74</ele>
        <time>2020-08-19T08:28:12Z</time>
      </trkpt>
      <trkpt lat="47.55446" lon="4.29323">
        <ele>293.34</ele>
        <time>2020-08-19T08:28:31Z</time>
      </trkpt>
      <trkpt lat="47.55443" lon="4.29467">
        <ele>291.42</ele>
        <time>2020-08-19T08:28:47Z</time>
      </trkpt>
      <trkpt lat="47.55444" lon="4.29551">
        <ele>288.53</ele>
        <time>2020-08-19T08:28:55Z</time>
      </trkpt>
      <trkpt lat="47.55446" lon="4.29562">
        <ele>288.05</ele>
        <time>2020-08-19T08:28:56Z</time>
      </trkpt>
      <trkpt lat="47.55485" lon="4.29728">
        <ele>285.17</ele>
        <time>2020-08-19T08:29:12Z</time>
      </trkpt>
      <trkpt lat="47.55488" lon="4.29749">
        <ele>285.65</ele>
        <time>2020-08-19T08:29:15Z</time>
      </trkpt>
      <trkpt lat="47.55488" lon="4.29756">
        <ele>285.65</ele>
        <time>2020-08-19T08:29:16Z</time>
      </trkpt>
      <trkpt lat="47.55487" lon="4.29763">
        <ele>286.13</ele>
        <time>2020-08-19T08:29:17Z</time>
      </trkpt>
      <trkpt lat="47.55486" lon="4.29769">
        <ele>286.13</ele>
        <time>2020-08-19T08:29:18Z</time>
      </trkpt>
      <trkpt lat="47.55485" lon="4.29775">
        <ele>286.13</ele>
        <time>2020-08-19T08:29:19Z</time>
      </trkpt>
      <trkpt lat="47.55483" lon="4.2978">
        <ele>286.13</ele>
        <time>2020-08-19T08:29:20Z</time>
      </trkpt>
      <trkpt lat="47.55481" lon="4.29785">
        <ele>286.13</ele>
        <time>2020-08-19T08:29:21Z</time>
      </trkpt>
      <trkpt lat="47.55478" lon="4.2979">
        <ele>286.13</ele>
        <time>2020-08-19T08:29:22Z</time>
      </trkpt>
      <trkpt lat="47.55476" lon="4.29792">
        <ele>286.61</ele>
        <time>2020-08-19T08:29:23Z</time>
      </trkpt>
      <trkpt lat="47.55473" lon="4.29793">
        <ele>286.13</ele>
        <time>2020-08-19T08:29:24Z</time>
      </trkpt>
      <trkpt lat="47.55471" lon="4.29792">
        <ele>286.13</ele>
        <time>2020-08-19T08:29:25Z</time>
      </trkpt>
      <trkpt lat="47.55468" lon="4.2979">
        <ele>286.13</ele>
        <time>2020-08-19T08:29:26Z</time>
      </trkpt>
      <trkpt lat="47.55415" lon="4.29764">
        <ele>276.04</ele>
        <time>2020-08-19T08:29:43Z</time>
      </trkpt>
      <trkpt lat="47.55386" lon="4.29705">
        <ele>267.38</ele>
        <time>2020-08-19T08:29:56Z</time>
      </trkpt>
      <trkpt lat="47.55374" lon="4.29676">
        <ele>263.54</ele>
        <time>2020-08-19T08:30:02Z</time>
      </trkpt>
      <trkpt lat="47.5537" lon="4.29674">
        <ele>263.54</ele>
        <time>2020-08-19T08:30:03Z</time>
      </trkpt>
      <trkpt lat="47.55351" lon="4.29669">
        <ele>261.62</ele>
        <time>2020-08-19T08:30:07Z</time>
      </trkpt>
      <trkpt lat="47.55335" lon="4.2967">
        <ele>260.17</ele>
        <time>2020-08-19T08:30:10Z</time>
      </trkpt>
      <trkpt lat="47.55322" lon="4.29674">
        <ele>258.73</ele>
        <time>2020-08-19T08:30:12Z</time>
      </trkpt>
      <trkpt lat="47.55237" lon="4.2967">
        <ele>250.08</ele>
        <time>2020-08-19T08:30:22Z</time>
      </trkpt>
      <trkpt lat="47.55115" lon="4.2964">
        <ele>240.47</ele>
        <time>2020-08-19T08:30:36Z</time>
      </trkpt>
      <trkpt lat="47.55099" lon="4.29636">
        <ele>239.51</ele>
        <time>2020-08-19T08:30:38Z</time>
      </trkpt>
      <trkpt lat="47.55092" lon="4.29636">
        <ele>239.02</ele>
        <time>2020-08-19T08:30:39Z</time>
      </trkpt>
      <trkpt lat="47.55086" lon="4.2964">
        <ele>238.54</ele>
        <time>2020-08-19T08:30:40Z</time>
      </trkpt>
      <trkpt lat="47.55081" lon="4.29647">
        <ele>238.06</ele>
        <time>2020-08-19T08:30:41Z</time>
      </trkpt>
      <trkpt lat="47.55078" lon="4.29654">
        <ele>238.06</ele>
        <time>2020-08-19T08:30:42Z</time>
      </trkpt>
      <trkpt lat="47.55076" lon="4.29663">
        <ele>237.58</ele>
        <time>2020-08-19T08:30:43Z</time>
      </trkpt>
      <trkpt lat="47.55074" lon="4.29671">
        <ele>237.1</ele>
        <time>2020-08-19T08:30:44Z</time>
      </trkpt>
      <trkpt lat="47.55074" lon="4.29772">
        <ele>236.14</ele>
        <time>2020-08-19T08:30:57Z</time>
      </trkpt>
      <trkpt lat="47.55082" lon="4.29801">
        <ele>237.1</ele>
        <time>2020-08-19T08:31:01Z</time>
      </trkpt>
      <trkpt lat="47.5512" lon="4.29913">
        <ele>239.51</ele>
        <time>2020-08-19T08:31:18Z</time>
      </trkpt>
      <trkpt lat="47.55154" lon="4.30011">
        <ele>241.43</ele>
        <time>2020-08-19T08:31:34Z</time>
      </trkpt>
      <trkpt lat="47.55157" lon="4.30022">
        <ele>241.43</ele>
        <time>2020-08-19T08:31:36Z</time>
      </trkpt>
      <trkpt lat="47.55186" lon="4.30167">
        <ele>240.47</ele>
        <time>2020-08-19T08:31:58Z</time>
      </trkpt>
      <trkpt lat="47.55189" lon="4.30173">
        <ele>240.47</ele>
        <time>2020-08-19T08:31:59Z</time>
      </trkpt>
      <trkpt lat="47.55201" lon="4.30193">
        <ele>240.47</ele>
        <time>2020-08-19T08:32:03Z</time>
      </trkpt>
      <trkpt lat="47.55204" lon="4.30196">
        <ele>240.47</ele>
        <time>2020-08-19T08:32:04Z</time>
      </trkpt>
      <trkpt lat="47.55244" lon="4.30228">
        <ele>242.39</ele>
        <time>2020-08-19T08:32:17Z</time>
      </trkpt>
      <trkpt lat="47.55281" lon="4.3029">
        <ele>245.27</ele>
        <time>2020-08-19T08:32:33Z</time>
      </trkpt>
      <trkpt lat="47.55317" lon="4.30377">
        <ele>247.2</ele>
        <time>2020-08-19T08:32:50Z</time>
      </trkpt>
      <trkpt lat="47.5536" lon="4.30449">
        <ele>247.68</ele>
        <time>2020-08-19T08:33:04Z</time>
      </trkpt>
      <trkpt lat="47.55364" lon="4.30453">
        <ele>248.16</ele>
        <time>2020-08-19T08:33:05Z</time>
      </trkpt>
      <trkpt lat="47.55367" lon="4.30457">
        <ele>248.16</ele>
        <time>2020-08-19T08:33:06Z</time>
      </trkpt>
      <trkpt lat="47.55403" lon="4.30498">
        <ele>250.56</ele>
        <time>2020-08-19T08:33:21Z</time>
      </trkpt>
      <trkpt lat="47.55402" lon="4.30527">
        <ele>251.04</ele>
        <time>2020-08-19T08:33:29Z</time>
      </trkpt>
      <trkpt lat="47.55401" lon="4.30531">
        <ele>251.04</ele>
        <time>2020-08-19T08:33:30Z</time>
      </trkpt>
      <trkpt lat="47.55389" lon="4.30596">
        <ele>256.33</ele>
        <time>2020-08-19T08:33:45Z</time>
      </trkpt>
      <trkpt lat="47.55402" lon="4.30651">
        <ele>257.29</ele>
        <time>2020-08-19T08:33:57Z</time>
      </trkpt>
      <trkpt lat="47.55437" lon="4.30705">
        <ele>256.81</ele>
        <time>2020-08-19T08:34:12Z</time>
      </trkpt>
      <trkpt lat="47.55453" lon="4.30719">
        <ele>256.81</ele>
        <time>2020-08-19T08:34:18Z</time>
      </trkpt>
      <trkpt lat="47.55455" lon="4.30723">
        <ele>256.33</ele>
        <time>2020-08-19T08:34:19Z</time>
      </trkpt>
      <trkpt lat="47.55456" lon="4.30728">
        <ele>255.85</ele>
        <time>2020-08-19T08:34:20Z</time>
      </trkpt>
      <trkpt lat="47.55462" lon="4.30753">
        <ele>255.85</ele>
        <time>2020-08-19T08:34:25Z</time>
      </trkpt>
      <trkpt lat="47.55459" lon="4.30759">
        <ele>255.37</ele>
        <time>2020-08-19T08:34:26Z</time>
      </trkpt>
      <trkpt lat="47.55456" lon="4.30763">
        <ele>255.37</ele>
        <time>2020-08-19T08:34:27Z</time>
      </trkpt>
      <trkpt lat="47.55438" lon="4.30784">
        <ele>254.41</ele>
        <time>2020-08-19T08:34:31Z</time>
      </trkpt>
      <trkpt lat="47.55434" lon="4.30792">
        <ele>254.41</ele>
        <time>2020-08-19T08:34:32Z</time>
      </trkpt>
      <trkpt lat="47.55431" lon="4.30801">
        <ele>254.41</ele>
        <time>2020-08-19T08:34:33Z</time>
      </trkpt>
      <trkpt lat="47.5543" lon="4.3081">
        <ele>254.41</ele>
        <time>2020-08-19T08:34:34Z</time>
      </trkpt>
      <trkpt lat="47.55429" lon="4.30819">
        <ele>254.41</ele>
        <time>2020-08-19T08:34:35Z</time>
      </trkpt>
      <trkpt lat="47.55429" lon="4.30829">
        <ele>254.41</ele>
        <time>2020-08-19T08:34:36Z</time>
      </trkpt>
      <trkpt lat="47.5543" lon="4.30838">
        <ele>253.93</ele>
        <time>2020-08-19T08:34:37Z</time>
      </trkpt>
      <trkpt lat="47.55431" lon="4.30846">
        <ele>253.93</ele>
        <time>2020-08-19T08:34:38Z</time>
      </trkpt>
      <trkpt lat="47.55438" lon="4.30891">
        <ele>253.93</ele>
        <time>2020-08-19T08:34:48Z</time>
      </trkpt>
      <trkpt lat="47.55437" lon="4.30892">
        <ele>252.48</ele>
        <time>2020-08-19T08:35:02Z</time>
      </trkpt>
      <trkpt lat="47.55438" lon="4.30894">
        <ele>253.93</ele>
        <time>2020-08-19T08:35:15Z</time>
      </trkpt>
      <trkpt lat="47.55427" lon="4.30896">
        <ele>256.81</ele>
        <time>2020-08-19T08:35:37Z</time>
      </trkpt>
      <trkpt lat="47.55421" lon="4.30899">
        <ele>254.89</ele>
        <time>2020-08-19T08:35:49Z</time>
      </trkpt>
      <trkpt lat="47.55423" lon="4.30898">
        <ele>253.44</ele>
        <time>2020-08-19T08:36:06Z</time>
      </trkpt>
      <trkpt lat="47.55424" lon="4.30899">
        <ele>251.04</ele>
        <time>2020-08-19T08:36:39Z</time>
      </trkpt>
      <trkpt lat="47.55424" lon="4.309">
        <ele>255.85</ele>
        <time>2020-08-19T08:37:05Z</time>
      </trkpt>
      <trkpt lat="47.55422" lon="4.30899">
        <ele>260.17</ele>
        <time>2020-08-19T08:37:33Z</time>
      </trkpt>
      <trkpt lat="47.55421" lon="4.30899">
        <ele>263.54</ele>
        <time>2020-08-19T08:38:07Z</time>
      </trkpt>
      <trkpt lat="47.55422" lon="4.309">
        <ele>262.1</ele>
        <time>2020-08-19T08:38:29Z</time>
      </trkpt>
    </trkseg>
  </trk>
</gpx>